<?xml version="1.0" encoding="UTF-8" standalone="no" ?>
<gpx xmlns="http://www.topografix.com/GPX/1/1" xmlns:xsi="http://www.w3.org/2001/XMLSchema-instance" xsi:schemaLocation="http://www.topografix.com/GPX/1/1 http://www.topografix.com/GPX/1/1/gpx.xsd" version="1.1" creator="VisuGPX - https://www.visugpx.com">
  <metadata>
    <name>Via Rhôna 2018</name>
    <desc><![CDATA[Ma ViaRhôna depuis Annecy jusqu'à la plage de Piémanson en 4 jours.
11/12/13/14 Mai 2018]]></desc>
  </metadata>
  <wpt lat="45.89897" lon="6.12964">
    <ele>452</ele>
    <name><![CDATA[Annecy]]></name>
  </wpt>
  <wpt lat="45.93371" lon="5.83679">
    <ele>255</ele>
    <name><![CDATA[2410 D991]]></name>
  </wpt>
  <wpt lat="43.67945" lon="4.61781">
    <ele>8</ele>
    <name><![CDATA[21-23 Avenue de la Camargue]]></name>
  </wpt>
  <wpt lat="43.34865" lon="4.7838">
    <ele>1</ele>
    <name><![CDATA[Plage de Piemanson]]></name>
  </wpt>
  <trk>
    <name><![CDATA[20180516133043-ZSSil]]></name>
    <trkseg>
      <trkpt lat="43.80506" lon="4.64865">
        <ele>8</ele>
        <time>2017-07-27T14:32:38Z</time>
      </trkpt>
      <trkpt lat="43.80514" lon="4.64824">
        <ele>10</ele>
        <time>2017-07-27T14:32:40Z</time>
      </trkpt>
      <trkpt lat="43.80533" lon="4.64698">
        <ele>11</ele>
        <time>2017-07-27T14:33:02Z</time>
      </trkpt>
      <trkpt lat="43.8061" lon="4.64138">
        <ele>8</ele>
        <time>2017-07-27T14:34:49Z</time>
      </trkpt>
      <trkpt lat="43.80647" lon="4.6388">
        <ele>8</ele>
        <time>2017-07-27T14:42:28Z</time>
      </trkpt>
      <trkpt lat="43.80648" lon="4.63866">
        <ele>8</ele>
        <time>2017-07-27T14:42:32Z</time>
      </trkpt>
      <trkpt lat="43.80648" lon="4.63864">
        <ele>8</ele>
        <time>2017-07-27T14:42:33Z</time>
      </trkpt>
      <trkpt lat="43.8065" lon="4.63848">
        <ele>7</ele>
        <time>2017-07-27T14:42:37Z</time>
      </trkpt>
      <trkpt lat="43.80646" lon="4.63828">
        <ele>7</ele>
        <time>2017-07-27T14:42:42Z</time>
      </trkpt>
      <trkpt lat="43.80645" lon="4.63826">
        <ele>7</ele>
        <time>2017-07-27T14:42:43Z</time>
      </trkpt>
      <trkpt lat="43.80643" lon="4.63824">
        <ele>7</ele>
        <time>2017-07-27T14:42:44Z</time>
      </trkpt>
      <trkpt lat="43.80642" lon="4.63823">
        <ele>7</ele>
        <time>2017-07-27T14:42:45Z</time>
      </trkpt>
      <trkpt lat="43.8064" lon="4.63821">
        <ele>7</ele>
        <time>2017-07-27T14:42:46Z</time>
      </trkpt>
      <trkpt lat="43.80638" lon="4.6382">
        <ele>7</ele>
        <time>2017-07-27T14:42:47Z</time>
      </trkpt>
      <trkpt lat="43.80626" lon="4.63818">
        <ele>7</ele>
        <time>2017-07-27T14:42:52Z</time>
      </trkpt>
      <trkpt lat="43.80617" lon="4.63818">
        <ele>7</ele>
        <time>2017-07-27T14:42:55Z</time>
      </trkpt>
      <trkpt lat="43.80576" lon="4.63813">
        <ele>8</ele>
        <time>2017-07-27T14:58:32Z</time>
      </trkpt>
      <trkpt lat="43.80567" lon="4.63814">
        <ele>8</ele>
        <time>2017-07-27T14:58:34Z</time>
      </trkpt>
      <trkpt lat="43.80559" lon="4.63807">
        <ele>8</ele>
        <time>2017-07-27T14:58:36Z</time>
      </trkpt>
      <trkpt lat="43.8055" lon="4.63794">
        <ele>7</ele>
        <time>2017-07-27T14:58:39Z</time>
      </trkpt>
      <trkpt lat="43.80545" lon="4.63786">
        <ele>7</ele>
        <time>2017-07-27T14:58:41Z</time>
      </trkpt>
      <trkpt lat="43.80542" lon="4.63782">
        <ele>7</ele>
        <time>2017-07-27T14:58:42Z</time>
      </trkpt>
      <trkpt lat="43.80533" lon="4.63763">
        <ele>7</ele>
        <time>2017-07-27T14:58:46Z</time>
      </trkpt>
      <trkpt lat="43.80527" lon="4.63752">
        <ele>7</ele>
        <time>2017-07-27T14:58:48Z</time>
      </trkpt>
      <trkpt lat="43.80509" lon="4.63713">
        <ele>6</ele>
        <time>2017-07-27T14:58:55Z</time>
      </trkpt>
      <trkpt lat="43.80496" lon="4.63681">
        <ele>6</ele>
        <time>2017-07-27T14:59:00Z</time>
      </trkpt>
      <trkpt lat="43.80496" lon="4.63681">
        <ele>6</ele>
        <time>2017-07-27T14:59:01Z</time>
      </trkpt>
      <trkpt lat="43.80478" lon="4.6365">
        <ele>6</ele>
        <time>2017-07-27T14:59:08Z</time>
      </trkpt>
      <trkpt lat="43.804" lon="4.63574">
        <ele>7</ele>
        <time>2017-07-27T14:59:49Z</time>
      </trkpt>
      <trkpt lat="43.80339" lon="4.63526">
        <ele>7</ele>
        <time>2017-07-27T15:00:05Z</time>
      </trkpt>
      <trkpt lat="43.80317" lon="4.63506">
        <ele>7</ele>
        <time>2017-07-27T15:00:11Z</time>
      </trkpt>
      <trkpt lat="43.80298" lon="4.63485">
        <ele>7</ele>
        <time>2017-07-27T15:00:17Z</time>
      </trkpt>
      <trkpt lat="43.80273" lon="4.63451">
        <ele>7</ele>
        <time>2017-07-27T15:00:25Z</time>
      </trkpt>
      <trkpt lat="43.80252" lon="4.63423">
        <ele>6</ele>
        <time>2017-07-27T15:00:32Z</time>
      </trkpt>
      <trkpt lat="43.80233" lon="4.63405">
        <ele>6</ele>
        <time>2017-07-27T15:00:38Z</time>
      </trkpt>
      <trkpt lat="43.80211" lon="4.63383">
        <ele>6</ele>
        <time>2017-07-27T15:00:46Z</time>
      </trkpt>
      <trkpt lat="43.80208" lon="4.6338">
        <ele>5</ele>
        <time>2017-07-27T15:00:47Z</time>
      </trkpt>
      <trkpt lat="43.80182" lon="4.63332">
        <ele>5</ele>
        <time>2017-07-27T15:02:28Z</time>
      </trkpt>
      <trkpt lat="43.80177" lon="4.63324">
        <ele>5</ele>
        <time>2017-07-27T15:02:30Z</time>
      </trkpt>
      <trkpt lat="43.80165" lon="4.63296">
        <ele>5</ele>
        <time>2017-07-27T15:02:36Z</time>
      </trkpt>
      <trkpt lat="43.80152" lon="4.63269">
        <ele>4</ele>
        <time>2017-07-27T15:02:42Z</time>
      </trkpt>
      <trkpt lat="43.8015" lon="4.63263">
        <ele>4</ele>
        <time>2017-07-27T15:02:43Z</time>
      </trkpt>
      <trkpt lat="43.80136" lon="4.63227">
        <ele>5</ele>
        <time>2017-07-27T15:02:50Z</time>
      </trkpt>
      <trkpt lat="43.80124" lon="4.63195">
        <ele>5</ele>
        <time>2017-07-27T15:02:57Z</time>
      </trkpt>
      <trkpt lat="43.80121" lon="4.6319">
        <ele>5</ele>
        <time>2017-07-27T15:02:58Z</time>
      </trkpt>
      <trkpt lat="43.8011" lon="4.63165">
        <ele>5</ele>
        <time>2017-07-27T15:03:03Z</time>
      </trkpt>
      <trkpt lat="43.80094" lon="4.63138">
        <ele>5</ele>
        <time>2017-07-27T15:03:09Z</time>
      </trkpt>
      <trkpt lat="43.80088" lon="4.6313">
        <ele>5</ele>
        <time>2017-07-27T15:03:11Z</time>
      </trkpt>
      <trkpt lat="43.80062" lon="4.6309">
        <ele>6</ele>
        <time>2017-07-27T15:03:20Z</time>
      </trkpt>
      <trkpt lat="43.80046" lon="4.63065">
        <ele>6</ele>
        <time>2017-07-27T15:03:26Z</time>
      </trkpt>
      <trkpt lat="43.80026" lon="4.63022">
        <ele>5</ele>
        <time>2017-07-27T15:03:34Z</time>
      </trkpt>
      <trkpt lat="43.80011" lon="4.62974">
        <ele>5</ele>
        <time>2017-07-27T15:03:42Z</time>
      </trkpt>
      <trkpt lat="43.79995" lon="4.62918">
        <ele>6</ele>
        <time>2017-07-27T15:03:51Z</time>
      </trkpt>
      <trkpt lat="43.79981" lon="4.6287">
        <ele>7</ele>
        <time>2017-07-27T15:03:59Z</time>
      </trkpt>
      <trkpt lat="43.79969" lon="4.6283">
        <ele>7</ele>
        <time>2017-07-27T15:04:06Z</time>
      </trkpt>
      <trkpt lat="43.79956" lon="4.62782">
        <ele>6</ele>
        <time>2017-07-27T15:04:13Z</time>
      </trkpt>
      <trkpt lat="43.79939" lon="4.62741">
        <ele>5</ele>
        <time>2017-07-27T15:04:20Z</time>
      </trkpt>
      <trkpt lat="43.79914" lon="4.62704">
        <ele>5</ele>
        <time>2017-07-27T15:04:28Z</time>
      </trkpt>
      <trkpt lat="43.7988" lon="4.62667">
        <ele>5</ele>
        <time>2017-07-27T15:04:37Z</time>
      </trkpt>
      <trkpt lat="43.7985" lon="4.62636">
        <ele>6</ele>
        <time>2017-07-27T15:04:45Z</time>
      </trkpt>
      <trkpt lat="43.79815" lon="4.62592">
        <ele>5</ele>
        <time>2017-07-27T15:04:55Z</time>
      </trkpt>
      <trkpt lat="43.7979" lon="4.62559">
        <ele>5</ele>
        <time>2017-07-27T15:05:02Z</time>
      </trkpt>
      <trkpt lat="43.7975" lon="4.62509">
        <ele>5</ele>
        <time>2017-07-27T15:05:13Z</time>
      </trkpt>
      <trkpt lat="43.79719" lon="4.62467">
        <ele>6</ele>
        <time>2017-07-27T15:05:22Z</time>
      </trkpt>
      <trkpt lat="43.79686" lon="4.62424">
        <ele>6</ele>
        <time>2017-07-27T15:05:31Z</time>
      </trkpt>
      <trkpt lat="43.79653" lon="4.62382">
        <ele>6</ele>
        <time>2017-07-27T15:05:40Z</time>
      </trkpt>
      <trkpt lat="43.79647" lon="4.62374">
        <ele>6</ele>
        <time>2017-07-27T15:05:42Z</time>
      </trkpt>
      <trkpt lat="43.79636" lon="4.62359">
        <ele>6</ele>
        <time>2017-07-27T15:05:46Z</time>
      </trkpt>
      <trkpt lat="43.79611" lon="4.62326">
        <ele>6</ele>
        <time>2017-07-27T15:05:54Z</time>
      </trkpt>
      <trkpt lat="43.79585" lon="4.62287">
        <ele>6</ele>
        <time>2017-07-27T15:06:02Z</time>
      </trkpt>
      <trkpt lat="43.79562" lon="4.62253">
        <ele>6</ele>
        <time>2017-07-27T15:06:09Z</time>
      </trkpt>
      <trkpt lat="43.79539" lon="4.6222">
        <ele>7</ele>
        <time>2017-07-27T15:06:16Z</time>
      </trkpt>
      <trkpt lat="43.79524" lon="4.62196">
        <ele>8</ele>
        <time>2017-07-27T15:06:21Z</time>
      </trkpt>
      <trkpt lat="43.79521" lon="4.62192">
        <ele>8</ele>
        <time>2017-07-27T15:06:22Z</time>
      </trkpt>
      <trkpt lat="43.79506" lon="4.62173">
        <ele>8</ele>
        <time>2017-07-27T15:06:27Z</time>
      </trkpt>
      <trkpt lat="43.79499" lon="4.62166">
        <ele>8</ele>
        <time>2017-07-27T15:06:29Z</time>
      </trkpt>
      <trkpt lat="43.79472" lon="4.62142">
        <ele>9</ele>
        <time>2017-07-27T15:06:36Z</time>
      </trkpt>
      <trkpt lat="43.79439" lon="4.62117">
        <ele>9</ele>
        <time>2017-07-27T15:06:44Z</time>
      </trkpt>
      <trkpt lat="43.79415" lon="4.62095">
        <ele>8</ele>
        <time>2017-07-27T15:06:50Z</time>
      </trkpt>
      <trkpt lat="43.79381" lon="4.62066">
        <ele>7</ele>
        <time>2017-07-27T15:06:58Z</time>
      </trkpt>
      <trkpt lat="43.79345" lon="4.62045">
        <ele>6</ele>
        <time>2017-07-27T15:07:06Z</time>
      </trkpt>
      <trkpt lat="43.79299" lon="4.62025">
        <ele>5</ele>
        <time>2017-07-27T15:07:16Z</time>
      </trkpt>
      <trkpt lat="43.79293" lon="4.62025">
        <ele>5</ele>
        <time>2017-07-27T15:07:17Z</time>
      </trkpt>
      <trkpt lat="43.79274" lon="4.62019">
        <ele>5</ele>
        <time>2017-07-27T15:07:21Z</time>
      </trkpt>
      <trkpt lat="43.79232" lon="4.62005">
        <ele>5</ele>
        <time>2017-07-27T15:07:30Z</time>
      </trkpt>
      <trkpt lat="43.79197" lon="4.61991">
        <ele>6</ele>
        <time>2017-07-27T15:07:38Z</time>
      </trkpt>
      <trkpt lat="43.79161" lon="4.61978">
        <ele>6</ele>
        <time>2017-07-27T15:07:46Z</time>
      </trkpt>
      <trkpt lat="43.79122" lon="4.61965">
        <ele>6</ele>
        <time>2017-07-27T15:07:55Z</time>
      </trkpt>
      <trkpt lat="43.79089" lon="4.61949">
        <ele>6</ele>
        <time>2017-07-27T15:08:03Z</time>
      </trkpt>
      <trkpt lat="43.79085" lon="4.61947">
        <ele>6</ele>
        <time>2017-07-27T15:08:04Z</time>
      </trkpt>
      <trkpt lat="43.79071" lon="4.61937">
        <ele>5</ele>
        <time>2017-07-27T15:08:08Z</time>
      </trkpt>
      <trkpt lat="43.79067" lon="4.61934">
        <ele>5</ele>
        <time>2017-07-27T15:08:09Z</time>
      </trkpt>
      <trkpt lat="43.79043" lon="4.61918">
        <ele>4</ele>
        <time>2017-07-27T15:08:15Z</time>
      </trkpt>
      <trkpt lat="43.79038" lon="4.61915">
        <ele>4</ele>
        <time>2017-07-27T15:08:16Z</time>
      </trkpt>
      <trkpt lat="43.79007" lon="4.61885">
        <ele>4</ele>
        <time>2017-07-27T15:08:24Z</time>
      </trkpt>
      <trkpt lat="43.78984" lon="4.6185">
        <ele>4</ele>
        <time>2017-07-27T15:08:31Z</time>
      </trkpt>
      <trkpt lat="43.78969" lon="4.61826">
        <ele>4</ele>
        <time>2017-07-27T15:08:37Z</time>
      </trkpt>
      <trkpt lat="43.78944" lon="4.61805">
        <ele>4</ele>
        <time>2017-07-27T15:08:44Z</time>
      </trkpt>
      <trkpt lat="43.78936" lon="4.61801">
        <ele>4</ele>
        <time>2017-07-27T15:08:46Z</time>
      </trkpt>
      <trkpt lat="43.78913" lon="4.61795">
        <ele>4</ele>
        <time>2017-07-27T15:08:51Z</time>
      </trkpt>
      <trkpt lat="43.78899" lon="4.61792">
        <ele>4</ele>
        <time>2017-07-27T15:08:54Z</time>
      </trkpt>
      <trkpt lat="43.78885" lon="4.61792">
        <ele>4</ele>
        <time>2017-07-27T15:08:57Z</time>
      </trkpt>
      <trkpt lat="43.78837" lon="4.6179">
        <ele>4</ele>
        <time>2017-07-27T15:09:07Z</time>
      </trkpt>
      <trkpt lat="43.78802" lon="4.61787">
        <ele>4</ele>
        <time>2017-07-27T15:09:15Z</time>
      </trkpt>
      <trkpt lat="43.78772" lon="4.61784">
        <ele>5</ele>
        <time>2017-07-27T15:09:22Z</time>
      </trkpt>
      <trkpt lat="43.78742" lon="4.61782">
        <ele>5</ele>
        <time>2017-07-27T15:09:29Z</time>
      </trkpt>
      <trkpt lat="43.78738" lon="4.61781">
        <ele>5</ele>
        <time>2017-07-27T15:09:30Z</time>
      </trkpt>
      <trkpt lat="43.78711" lon="4.61778">
        <ele>6</ele>
        <time>2017-07-27T15:09:36Z</time>
      </trkpt>
      <trkpt lat="43.78689" lon="4.61775">
        <ele>6</ele>
        <time>2017-07-27T15:09:42Z</time>
      </trkpt>
      <trkpt lat="43.78679" lon="4.61772">
        <ele>6</ele>
        <time>2017-07-27T15:09:46Z</time>
      </trkpt>
      <trkpt lat="43.78656" lon="4.61767">
        <ele>6</ele>
        <time>2017-07-27T15:10:56Z</time>
      </trkpt>
      <trkpt lat="43.78652" lon="4.61766">
        <ele>6</ele>
        <time>2017-07-27T15:10:57Z</time>
      </trkpt>
      <trkpt lat="43.78627" lon="4.61757">
        <ele>6</ele>
        <time>2017-07-27T15:11:05Z</time>
      </trkpt>
      <trkpt lat="43.78598" lon="4.61743">
        <ele>6</ele>
        <time>2017-07-27T15:11:13Z</time>
      </trkpt>
      <trkpt lat="43.7858" lon="4.61736">
        <ele>5</ele>
        <time>2017-07-27T15:11:19Z</time>
      </trkpt>
      <trkpt lat="43.78554" lon="4.61723">
        <ele>5</ele>
        <time>2017-07-27T15:11:26Z</time>
      </trkpt>
      <trkpt lat="43.78531" lon="4.61713">
        <ele>4</ele>
        <time>2017-07-27T15:11:32Z</time>
      </trkpt>
      <trkpt lat="43.78511" lon="4.61702">
        <ele>4</ele>
        <time>2017-07-27T15:11:38Z</time>
      </trkpt>
      <trkpt lat="43.78489" lon="4.61688">
        <ele>4</ele>
        <time>2017-07-27T15:11:44Z</time>
      </trkpt>
      <trkpt lat="43.78461" lon="4.61663">
        <ele>4</ele>
        <time>2017-07-27T15:11:52Z</time>
      </trkpt>
      <trkpt lat="43.78423" lon="4.61628">
        <ele>3</ele>
        <time>2017-07-27T15:12:03Z</time>
      </trkpt>
      <trkpt lat="43.784" lon="4.61607">
        <ele>3</ele>
        <time>2017-07-27T15:12:10Z</time>
      </trkpt>
      <trkpt lat="43.7838" lon="4.61587">
        <ele>4</ele>
        <time>2017-07-27T15:12:17Z</time>
      </trkpt>
      <trkpt lat="43.78346" lon="4.61557">
        <ele>4</ele>
        <time>2017-07-27T15:12:27Z</time>
      </trkpt>
      <trkpt lat="43.78318" lon="4.61529">
        <ele>5</ele>
        <time>2017-07-27T15:12:35Z</time>
      </trkpt>
      <trkpt lat="43.7829" lon="4.61502">
        <ele>5</ele>
        <time>2017-07-27T15:12:43Z</time>
      </trkpt>
      <trkpt lat="43.78265" lon="4.61479">
        <ele>5</ele>
        <time>2017-07-27T15:12:50Z</time>
      </trkpt>
      <trkpt lat="43.78234" lon="4.61449">
        <ele>4</ele>
        <time>2017-07-27T15:12:59Z</time>
      </trkpt>
      <trkpt lat="43.78201" lon="4.61418">
        <ele>4</ele>
        <time>2017-07-27T15:13:08Z</time>
      </trkpt>
      <trkpt lat="43.78163" lon="4.61384">
        <ele>4</ele>
        <time>2017-07-27T15:13:18Z</time>
      </trkpt>
      <trkpt lat="43.78129" lon="4.61354">
        <ele>4</ele>
        <time>2017-07-27T15:13:27Z</time>
      </trkpt>
      <trkpt lat="43.78104" lon="4.61332">
        <ele>4</ele>
        <time>2017-07-27T15:13:34Z</time>
      </trkpt>
      <trkpt lat="43.78079" lon="4.61312">
        <ele>4</ele>
        <time>2017-07-27T15:13:41Z</time>
      </trkpt>
      <trkpt lat="43.78071" lon="4.61307">
        <ele>4</ele>
        <time>2017-07-27T15:13:43Z</time>
      </trkpt>
      <trkpt lat="43.78055" lon="4.61299">
        <ele>4</ele>
        <time>2017-07-27T15:13:47Z</time>
      </trkpt>
      <trkpt lat="43.78014" lon="4.61277">
        <ele>4</ele>
        <time>2017-07-27T15:13:57Z</time>
      </trkpt>
      <trkpt lat="43.77975" lon="4.61252">
        <ele>4</ele>
        <time>2017-07-27T15:14:07Z</time>
      </trkpt>
      <trkpt lat="43.77957" lon="4.61238">
        <ele>4</ele>
        <time>2017-07-27T15:14:12Z</time>
      </trkpt>
      <trkpt lat="43.77918" lon="4.61208">
        <ele>4</ele>
        <time>2017-07-27T15:14:22Z</time>
      </trkpt>
      <trkpt lat="43.77883" lon="4.61183">
        <ele>4</ele>
        <time>2017-07-27T15:14:31Z</time>
      </trkpt>
      <trkpt lat="43.77844" lon="4.61158">
        <ele>5</ele>
        <time>2017-07-27T15:14:41Z</time>
      </trkpt>
      <trkpt lat="43.77814" lon="4.61135">
        <ele>4</ele>
        <time>2017-07-27T15:14:49Z</time>
      </trkpt>
      <trkpt lat="43.77796" lon="4.61118">
        <ele>4</ele>
        <time>2017-07-27T15:14:55Z</time>
      </trkpt>
      <trkpt lat="43.77793" lon="4.61114">
        <ele>4</ele>
        <time>2017-07-27T15:14:56Z</time>
      </trkpt>
      <trkpt lat="43.77782" lon="4.61093">
        <ele>4</ele>
        <time>2017-07-27T15:15:01Z</time>
      </trkpt>
      <trkpt lat="43.77767" lon="4.61061">
        <ele>4</ele>
        <time>2017-07-27T15:15:08Z</time>
      </trkpt>
      <trkpt lat="43.77754" lon="4.61026">
        <ele>4</ele>
        <time>2017-07-27T15:15:15Z</time>
      </trkpt>
      <trkpt lat="43.77737" lon="4.60978">
        <ele>3</ele>
        <time>2017-07-27T15:15:24Z</time>
      </trkpt>
      <trkpt lat="43.77729" lon="4.60956">
        <ele>3</ele>
        <time>2017-07-27T15:15:28Z</time>
      </trkpt>
      <trkpt lat="43.77725" lon="4.60944">
        <ele>3</ele>
        <time>2017-07-27T15:15:30Z</time>
      </trkpt>
      <trkpt lat="43.77713" lon="4.60911">
        <ele>3</ele>
        <time>2017-07-27T15:15:37Z</time>
      </trkpt>
      <trkpt lat="43.77698" lon="4.60876">
        <ele>2</ele>
        <time>2017-07-27T15:15:44Z</time>
      </trkpt>
      <trkpt lat="43.77673" lon="4.60826">
        <ele>3</ele>
        <time>2017-07-27T15:15:54Z</time>
      </trkpt>
      <trkpt lat="43.77658" lon="4.60799">
        <ele>3</ele>
        <time>2017-07-27T15:16:00Z</time>
      </trkpt>
      <trkpt lat="43.77639" lon="4.60758">
        <ele>3</ele>
        <time>2017-07-27T15:16:08Z</time>
      </trkpt>
      <trkpt lat="43.77622" lon="4.60714">
        <ele>4</ele>
        <time>2017-07-27T15:16:16Z</time>
      </trkpt>
      <trkpt lat="43.77612" lon="4.60682">
        <ele>4</ele>
        <time>2017-07-27T15:16:22Z</time>
      </trkpt>
      <trkpt lat="43.77608" lon="4.6066">
        <ele>5</ele>
        <time>2017-07-27T15:16:26Z</time>
      </trkpt>
      <trkpt lat="43.77607" lon="4.60649">
        <ele>5</ele>
        <time>2017-07-27T15:16:28Z</time>
      </trkpt>
      <trkpt lat="43.77602" lon="4.60613">
        <ele>5</ele>
        <time>2017-07-27T15:16:35Z</time>
      </trkpt>
      <trkpt lat="43.77599" lon="4.6059">
        <ele>5</ele>
        <time>2017-07-27T15:16:39Z</time>
      </trkpt>
      <trkpt lat="43.77597" lon="4.60577">
        <ele>5</ele>
        <time>2017-07-27T15:16:41Z</time>
      </trkpt>
      <trkpt lat="43.77595" lon="4.60564">
        <ele>5</ele>
        <time>2017-07-27T15:16:43Z</time>
      </trkpt>
      <trkpt lat="43.7759" lon="4.60539">
        <ele>5</ele>
        <time>2017-07-27T15:16:47Z</time>
      </trkpt>
      <trkpt lat="43.77581" lon="4.60496">
        <ele>5</ele>
        <time>2017-07-27T15:16:55Z</time>
      </trkpt>
      <trkpt lat="43.77573" lon="4.60472">
        <ele>4</ele>
        <time>2017-07-27T15:17:00Z</time>
      </trkpt>
      <trkpt lat="43.77571" lon="4.60467">
        <ele>4</ele>
        <time>2017-07-27T15:17:01Z</time>
      </trkpt>
      <trkpt lat="43.77565" lon="4.60452">
        <ele>4</ele>
        <time>2017-07-27T15:17:04Z</time>
      </trkpt>
      <trkpt lat="43.7755" lon="4.6043">
        <ele>4</ele>
        <time>2017-07-27T15:17:09Z</time>
      </trkpt>
      <trkpt lat="43.77521" lon="4.60392">
        <ele>3</ele>
        <time>2017-07-27T15:17:18Z</time>
      </trkpt>
      <trkpt lat="43.77501" lon="4.60365">
        <ele>3</ele>
        <time>2017-07-27T15:17:25Z</time>
      </trkpt>
      <trkpt lat="43.77477" lon="4.60333">
        <ele>3</ele>
        <time>2017-07-27T15:17:33Z</time>
      </trkpt>
      <trkpt lat="43.77446" lon="4.60294">
        <ele>3</ele>
        <time>2017-07-27T15:17:42Z</time>
      </trkpt>
      <trkpt lat="43.77418" lon="4.60257">
        <ele>3</ele>
        <time>2017-07-27T15:17:50Z</time>
      </trkpt>
      <trkpt lat="43.77383" lon="4.6021">
        <ele>3</ele>
        <time>2017-07-27T15:18:00Z</time>
      </trkpt>
      <trkpt lat="43.77351" lon="4.60169">
        <ele>3</ele>
        <time>2017-07-27T15:18:09Z</time>
      </trkpt>
      <trkpt lat="43.77314" lon="4.60118">
        <ele>3</ele>
        <time>2017-07-27T15:18:19Z</time>
      </trkpt>
      <trkpt lat="43.77304" lon="4.60102">
        <ele>3</ele>
        <time>2017-07-27T15:18:22Z</time>
      </trkpt>
      <trkpt lat="43.77293" lon="4.60088">
        <ele>3</ele>
        <time>2017-07-27T15:18:25Z</time>
      </trkpt>
      <trkpt lat="43.77267" lon="4.6005">
        <ele>3</ele>
        <time>2017-07-27T15:18:33Z</time>
      </trkpt>
      <trkpt lat="43.77261" lon="4.6004">
        <ele>4</ele>
        <time>2017-07-27T15:18:35Z</time>
      </trkpt>
      <trkpt lat="43.77253" lon="4.60014">
        <ele>4</ele>
        <time>2017-07-27T15:18:39Z</time>
      </trkpt>
      <trkpt lat="43.77252" lon="4.6">
        <ele>4</ele>
        <time>2017-07-27T15:18:41Z</time>
      </trkpt>
      <trkpt lat="43.77251" lon="4.59972">
        <ele>4</ele>
        <time>2017-07-27T15:18:45Z</time>
      </trkpt>
      <trkpt lat="43.77248" lon="4.59906">
        <ele>4</ele>
        <time>2017-07-27T15:18:55Z</time>
      </trkpt>
      <trkpt lat="43.77244" lon="4.59874">
        <ele>3</ele>
        <time>2017-07-27T15:19:00Z</time>
      </trkpt>
      <trkpt lat="43.77242" lon="4.59863">
        <ele>3</ele>
        <time>2017-07-27T15:19:02Z</time>
      </trkpt>
      <trkpt lat="43.77234" lon="4.59842">
        <ele>3</ele>
        <time>2017-07-27T15:19:07Z</time>
      </trkpt>
      <trkpt lat="43.77219" lon="4.5982">
        <ele>3</ele>
        <time>2017-07-27T15:19:13Z</time>
      </trkpt>
      <trkpt lat="43.77196" lon="4.59797">
        <ele>3</ele>
        <time>2017-07-27T15:19:20Z</time>
      </trkpt>
      <trkpt lat="43.77163" lon="4.59766">
        <ele>2</ele>
        <time>2017-07-27T15:19:29Z</time>
      </trkpt>
      <trkpt lat="43.77135" lon="4.59743">
        <ele>3</ele>
        <time>2017-07-27T15:19:37Z</time>
      </trkpt>
      <trkpt lat="43.77118" lon="4.59728">
        <ele>3</ele>
        <time>2017-07-27T15:19:43Z</time>
      </trkpt>
      <trkpt lat="43.77099" lon="4.59716">
        <ele>3</ele>
        <time>2017-07-27T15:19:48Z</time>
      </trkpt>
      <trkpt lat="43.77092" lon="4.5971">
        <ele>3</ele>
        <time>2017-07-27T15:19:50Z</time>
      </trkpt>
      <trkpt lat="43.77085" lon="4.59704">
        <ele>3</ele>
        <time>2017-07-27T15:19:52Z</time>
      </trkpt>
      <trkpt lat="43.77066" lon="4.59691">
        <ele>3</ele>
        <time>2017-07-27T15:19:57Z</time>
      </trkpt>
      <trkpt lat="43.77037" lon="4.59672">
        <ele>3</ele>
        <time>2017-07-27T15:20:04Z</time>
      </trkpt>
      <trkpt lat="43.77028" lon="4.59668">
        <ele>3</ele>
        <time>2017-07-27T15:20:06Z</time>
      </trkpt>
      <trkpt lat="43.77009" lon="4.59664">
        <ele>4</ele>
        <time>2017-07-27T15:20:11Z</time>
      </trkpt>
      <trkpt lat="43.77001" lon="4.59662">
        <ele>4</ele>
        <time>2017-07-27T15:20:13Z</time>
      </trkpt>
      <trkpt lat="43.76987" lon="4.59659">
        <ele>4</ele>
        <time>2017-07-27T15:20:16Z</time>
      </trkpt>
      <trkpt lat="43.76958" lon="4.59653">
        <ele>4</ele>
        <time>2017-07-27T15:20:23Z</time>
      </trkpt>
      <trkpt lat="43.76924" lon="4.59646">
        <ele>4</ele>
        <time>2017-07-27T15:20:32Z</time>
      </trkpt>
      <trkpt lat="43.76903" lon="4.59643">
        <ele>4</ele>
        <time>2017-07-27T15:20:38Z</time>
      </trkpt>
      <trkpt lat="43.76885" lon="4.59639">
        <ele>4</ele>
        <time>2017-07-27T15:20:43Z</time>
      </trkpt>
      <trkpt lat="43.76854" lon="4.59631">
        <ele>4</ele>
        <time>2017-07-27T15:20:51Z</time>
      </trkpt>
      <trkpt lat="43.76817" lon="4.59624">
        <ele>4</ele>
        <time>2017-07-27T15:21:00Z</time>
      </trkpt>
      <trkpt lat="43.76781" lon="4.59615">
        <ele>3</ele>
        <time>2017-07-27T15:21:09Z</time>
      </trkpt>
      <trkpt lat="43.7676" lon="4.59612">
        <ele>3</ele>
        <time>2017-07-27T15:21:15Z</time>
      </trkpt>
      <trkpt lat="43.76728" lon="4.59605">
        <ele>3</ele>
        <time>2017-07-27T15:21:23Z</time>
      </trkpt>
      <trkpt lat="43.76695" lon="4.59599">
        <ele>3</ele>
        <time>2017-07-27T15:21:31Z</time>
      </trkpt>
      <trkpt lat="43.7666" lon="4.59592">
        <ele>2</ele>
        <time>2017-07-27T15:21:39Z</time>
      </trkpt>
      <trkpt lat="43.76638" lon="4.59588">
        <ele>2</ele>
        <time>2017-07-27T15:21:45Z</time>
      </trkpt>
      <trkpt lat="43.76609" lon="4.59582">
        <ele>2</ele>
        <time>2017-07-27T15:21:52Z</time>
      </trkpt>
      <trkpt lat="43.76573" lon="4.59574">
        <ele>2</ele>
        <time>2017-07-27T15:22:00Z</time>
      </trkpt>
      <trkpt lat="43.76533" lon="4.59569">
        <ele>3</ele>
        <time>2017-07-27T15:22:09Z</time>
      </trkpt>
      <trkpt lat="43.76494" lon="4.59564">
        <ele>3</ele>
        <time>2017-07-27T15:22:18Z</time>
      </trkpt>
      <trkpt lat="43.76442" lon="4.59558">
        <ele>3</ele>
        <time>2017-07-27T15:22:30Z</time>
      </trkpt>
      <trkpt lat="43.76421" lon="4.59556">
        <ele>3</ele>
        <time>2017-07-27T15:22:35Z</time>
      </trkpt>
      <trkpt lat="43.76417" lon="4.59555">
        <ele>3</ele>
        <time>2017-07-27T15:22:36Z</time>
      </trkpt>
      <trkpt lat="43.76413" lon="4.59555">
        <ele>3</ele>
        <time>2017-07-27T15:22:37Z</time>
      </trkpt>
      <trkpt lat="43.76408" lon="4.59554">
        <ele>3</ele>
        <time>2017-07-27T15:22:38Z</time>
      </trkpt>
      <trkpt lat="43.76372" lon="4.59546">
        <ele>4</ele>
        <time>2017-07-27T15:22:46Z</time>
      </trkpt>
      <trkpt lat="43.76359" lon="4.59531">
        <ele>3</ele>
        <time>2017-07-27T15:22:50Z</time>
      </trkpt>
      <trkpt lat="43.76346" lon="4.5951">
        <ele>3</ele>
        <time>2017-07-27T15:22:55Z</time>
      </trkpt>
      <trkpt lat="43.76328" lon="4.595">
        <ele>3</ele>
        <time>2017-07-27T15:22:59Z</time>
      </trkpt>
      <trkpt lat="43.76324" lon="4.59499">
        <ele>3</ele>
        <time>2017-07-27T15:23:00Z</time>
      </trkpt>
      <trkpt lat="43.7631" lon="4.59494">
        <ele>3</ele>
        <time>2017-07-27T15:23:03Z</time>
      </trkpt>
      <trkpt lat="43.76293" lon="4.59492">
        <ele>3</ele>
        <time>2017-07-27T15:23:07Z</time>
      </trkpt>
      <trkpt lat="43.7626" lon="4.59487">
        <ele>2</ele>
        <time>2017-07-27T15:23:15Z</time>
      </trkpt>
      <trkpt lat="43.76223" lon="4.59481">
        <ele>2</ele>
        <time>2017-07-27T15:23:24Z</time>
      </trkpt>
      <trkpt lat="43.76178" lon="4.59474">
        <ele>3</ele>
        <time>2017-07-27T15:23:34Z</time>
      </trkpt>
      <trkpt lat="43.76142" lon="4.59469">
        <ele>4</ele>
        <time>2017-07-27T15:23:42Z</time>
      </trkpt>
      <trkpt lat="43.76103" lon="4.59467">
        <ele>4</ele>
        <time>2017-07-27T15:23:51Z</time>
      </trkpt>
      <trkpt lat="43.76074" lon="4.5946">
        <ele>5</ele>
        <time>2017-07-27T15:23:58Z</time>
      </trkpt>
      <trkpt lat="43.76033" lon="4.59448">
        <ele>4</ele>
        <time>2017-07-27T15:24:08Z</time>
      </trkpt>
      <trkpt lat="43.75993" lon="4.59437">
        <ele>4</ele>
        <time>2017-07-27T15:24:18Z</time>
      </trkpt>
      <trkpt lat="43.75975" lon="4.59432">
        <ele>4</ele>
        <time>2017-07-27T15:24:24Z</time>
      </trkpt>
      <trkpt lat="43.75952" lon="4.59427">
        <ele>4</ele>
        <time>2017-07-27T15:24:30Z</time>
      </trkpt>
      <trkpt lat="43.75931" lon="4.59423">
        <ele>4</ele>
        <time>2017-07-27T15:24:36Z</time>
      </trkpt>
      <trkpt lat="43.75914" lon="4.5942">
        <ele>4</ele>
        <time>2017-07-27T15:24:41Z</time>
      </trkpt>
      <trkpt lat="43.75886" lon="4.59415">
        <ele>3</ele>
        <time>2017-07-27T15:24:48Z</time>
      </trkpt>
      <trkpt lat="43.75856" lon="4.59412">
        <ele>3</ele>
        <time>2017-07-27T15:24:56Z</time>
      </trkpt>
      <trkpt lat="43.75838" lon="4.59409">
        <ele>2</ele>
        <time>2017-07-27T15:25:02Z</time>
      </trkpt>
      <trkpt lat="43.75822" lon="4.59407">
        <ele>2</ele>
        <time>2017-07-27T15:25:06Z</time>
      </trkpt>
      <trkpt lat="43.75814" lon="4.59406">
        <ele>2</ele>
        <time>2017-07-27T15:25:08Z</time>
      </trkpt>
      <trkpt lat="43.75779" lon="4.59402">
        <ele>2</ele>
        <time>2017-07-27T15:25:17Z</time>
      </trkpt>
      <trkpt lat="43.75745" lon="4.59399">
        <ele>2</ele>
        <time>2017-07-27T15:25:25Z</time>
      </trkpt>
      <trkpt lat="43.75723" lon="4.59398">
        <ele>3</ele>
        <time>2017-07-27T15:25:31Z</time>
      </trkpt>
      <trkpt lat="43.75699" lon="4.59394">
        <ele>3</ele>
        <time>2017-07-27T15:25:39Z</time>
      </trkpt>
      <trkpt lat="43.75682" lon="4.59383">
        <ele>3</ele>
        <time>2017-07-27T15:25:45Z</time>
      </trkpt>
      <trkpt lat="43.75662" lon="4.59367">
        <ele>4</ele>
        <time>2017-07-27T15:25:51Z</time>
      </trkpt>
      <trkpt lat="43.7564" lon="4.59361">
        <ele>4</ele>
        <time>2017-07-27T15:25:56Z</time>
      </trkpt>
      <trkpt lat="43.75618" lon="4.59356">
        <ele>4</ele>
        <time>2017-07-27T15:26:02Z</time>
      </trkpt>
      <trkpt lat="43.75594" lon="4.59354">
        <ele>5</ele>
        <time>2017-07-27T15:26:09Z</time>
      </trkpt>
      <trkpt lat="43.75562" lon="4.59352">
        <ele>4</ele>
        <time>2017-07-27T15:26:17Z</time>
      </trkpt>
      <trkpt lat="43.75535" lon="4.59351">
        <ele>4</ele>
        <time>2017-07-27T15:26:24Z</time>
      </trkpt>
      <trkpt lat="43.7551" lon="4.59354">
        <ele>3</ele>
        <time>2017-07-27T15:26:31Z</time>
      </trkpt>
      <trkpt lat="43.75483" lon="4.59358">
        <ele>3</ele>
        <time>2017-07-27T15:26:40Z</time>
      </trkpt>
      <trkpt lat="43.75466" lon="4.59362">
        <ele>3</ele>
        <time>2017-07-27T15:26:46Z</time>
      </trkpt>
      <trkpt lat="43.75453" lon="4.59365">
        <ele>3</ele>
        <time>2017-07-27T15:26:52Z</time>
      </trkpt>
      <trkpt lat="43.75433" lon="4.59369">
        <ele>3</ele>
        <time>2017-07-27T15:26:58Z</time>
      </trkpt>
      <trkpt lat="43.75413" lon="4.59374">
        <ele>3</ele>
        <time>2017-07-27T15:27:04Z</time>
      </trkpt>
      <trkpt lat="43.754" lon="4.59375">
        <ele>3</ele>
        <time>2017-07-27T15:27:09Z</time>
      </trkpt>
      <trkpt lat="43.754" lon="4.59376">
        <ele>3</ele>
        <time>2017-07-27T15:27:13Z</time>
      </trkpt>
      <trkpt lat="43.754" lon="4.59376">
        <ele>3</ele>
        <time>2017-07-27T15:27:27Z</time>
      </trkpt>
      <trkpt lat="43.754" lon="4.59376">
        <ele>3</ele>
        <time>2017-07-27T15:27:36Z</time>
      </trkpt>
      <trkpt lat="43.754" lon="4.59375">
        <ele>3</ele>
        <time>2017-07-27T15:27:53Z</time>
      </trkpt>
      <trkpt lat="43.754" lon="4.59375">
        <ele>3</ele>
        <time>2017-07-27T15:28:07Z</time>
      </trkpt>
      <trkpt lat="43.754" lon="4.59375">
        <ele>3</ele>
        <time>2017-07-27T15:28:22Z</time>
      </trkpt>
      <trkpt lat="43.754" lon="4.59375">
        <ele>3</ele>
        <time>2017-07-27T15:28:40Z</time>
      </trkpt>
      <trkpt lat="43.754" lon="4.59375">
        <ele>3</ele>
        <time>2017-07-27T15:28:56Z</time>
      </trkpt>
      <trkpt lat="43.754" lon="4.59375">
        <ele>3</ele>
        <time>2017-07-27T15:29:12Z</time>
      </trkpt>
      <trkpt lat="43.754" lon="4.59375">
        <ele>3</ele>
        <time>2017-07-27T15:29:25Z</time>
      </trkpt>
      <trkpt lat="43.754" lon="4.59375">
        <ele>3</ele>
        <time>2017-07-27T15:29:39Z</time>
      </trkpt>
      <trkpt lat="43.75396" lon="4.59377">
        <ele>3</ele>
        <time>2017-07-27T15:29:46Z</time>
      </trkpt>
      <trkpt lat="43.75382" lon="4.5938">
        <ele>3</ele>
        <time>2017-07-27T15:29:51Z</time>
      </trkpt>
      <trkpt lat="43.75358" lon="4.59386">
        <ele>3</ele>
        <time>2017-07-27T15:29:58Z</time>
      </trkpt>
      <trkpt lat="43.75325" lon="4.59393">
        <ele>3</ele>
        <time>2017-07-27T15:30:07Z</time>
      </trkpt>
      <trkpt lat="43.75306" lon="4.59397">
        <ele>3</ele>
        <time>2017-07-27T15:30:13Z</time>
      </trkpt>
      <trkpt lat="43.75293" lon="4.59387">
        <ele>3</ele>
        <time>2017-07-27T15:30:19Z</time>
      </trkpt>
      <trkpt lat="43.75289" lon="4.59366">
        <ele>3</ele>
        <time>2017-07-27T15:30:23Z</time>
      </trkpt>
      <trkpt lat="43.7529" lon="4.5933">
        <ele>3</ele>
        <time>2017-07-27T15:30:29Z</time>
      </trkpt>
      <trkpt lat="43.7529" lon="4.59324">
        <ele>3</ele>
        <time>2017-07-27T15:30:30Z</time>
      </trkpt>
      <trkpt lat="43.75291" lon="4.59296">
        <ele>3</ele>
        <time>2017-07-27T15:30:35Z</time>
      </trkpt>
      <trkpt lat="43.7529" lon="4.59256">
        <ele>4</ele>
        <time>2017-07-27T15:30:42Z</time>
      </trkpt>
      <trkpt lat="43.75291" lon="4.59224">
        <ele>4</ele>
        <time>2017-07-27T15:30:49Z</time>
      </trkpt>
      <trkpt lat="43.75291" lon="4.59192">
        <ele>4</ele>
        <time>2017-07-27T15:30:55Z</time>
      </trkpt>
      <trkpt lat="43.75284" lon="4.59179">
        <ele>4</ele>
        <time>2017-07-27T15:30:58Z</time>
      </trkpt>
      <trkpt lat="43.75268" lon="4.59177">
        <ele>3</ele>
        <time>2017-07-27T15:31:02Z</time>
      </trkpt>
      <trkpt lat="43.75253" lon="4.59175">
        <ele>3</ele>
        <time>2017-07-27T15:31:06Z</time>
      </trkpt>
      <trkpt lat="43.75247" lon="4.59175">
        <ele>3</ele>
        <time>2017-07-27T15:31:08Z</time>
      </trkpt>
      <trkpt lat="43.75221" lon="4.59175">
        <ele>3</ele>
        <time>2017-07-27T15:31:15Z</time>
      </trkpt>
      <trkpt lat="43.75205" lon="4.59175">
        <ele>4</ele>
        <time>2017-07-27T15:31:18Z</time>
      </trkpt>
      <trkpt lat="43.75201" lon="4.59175">
        <ele>4</ele>
        <time>2017-07-27T15:31:19Z</time>
      </trkpt>
      <trkpt lat="43.75179" lon="4.59175">
        <ele>4</ele>
        <time>2017-07-27T15:31:25Z</time>
      </trkpt>
      <trkpt lat="43.75175" lon="4.59174">
        <ele>4</ele>
        <time>2017-07-27T15:31:26Z</time>
      </trkpt>
      <trkpt lat="43.7515" lon="4.5917">
        <ele>4</ele>
        <time>2017-07-27T15:31:32Z</time>
      </trkpt>
      <trkpt lat="43.75131" lon="4.59167">
        <ele>4</ele>
        <time>2017-07-27T15:31:38Z</time>
      </trkpt>
      <trkpt lat="43.75109" lon="4.59161">
        <ele>3</ele>
        <time>2017-07-27T15:31:44Z</time>
      </trkpt>
      <trkpt lat="43.75086" lon="4.59151">
        <ele>3</ele>
        <time>2017-07-27T15:31:50Z</time>
      </trkpt>
      <trkpt lat="43.75065" lon="4.59134">
        <ele>3</ele>
        <time>2017-07-27T15:31:56Z</time>
      </trkpt>
      <trkpt lat="43.75059" lon="4.59127">
        <ele>3</ele>
        <time>2017-07-27T15:31:58Z</time>
      </trkpt>
      <trkpt lat="43.75044" lon="4.59108">
        <ele>3</ele>
        <time>2017-07-27T15:32:03Z</time>
      </trkpt>
      <trkpt lat="43.75034" lon="4.59096">
        <ele>4</ele>
        <time>2017-07-27T15:32:06Z</time>
      </trkpt>
      <trkpt lat="43.75016" lon="4.59073">
        <ele>3</ele>
        <time>2017-07-27T15:32:12Z</time>
      </trkpt>
      <trkpt lat="43.74995" lon="4.59046">
        <ele>4</ele>
        <time>2017-07-27T15:32:19Z</time>
      </trkpt>
      <trkpt lat="43.7497" lon="4.59013">
        <ele>3</ele>
        <time>2017-07-27T15:32:27Z</time>
      </trkpt>
      <trkpt lat="43.74966" lon="4.59009">
        <ele>3</ele>
        <time>2017-07-27T15:32:28Z</time>
      </trkpt>
      <trkpt lat="43.74963" lon="4.59005">
        <ele>3</ele>
        <time>2017-07-27T15:32:29Z</time>
      </trkpt>
      <trkpt lat="43.74944" lon="4.58981">
        <ele>3</ele>
        <time>2017-07-27T15:32:35Z</time>
      </trkpt>
      <trkpt lat="43.74916" lon="4.5895">
        <ele>4</ele>
        <time>2017-07-27T15:32:43Z</time>
      </trkpt>
      <trkpt lat="43.74889" lon="4.58921">
        <ele>4</ele>
        <time>2017-07-27T15:32:51Z</time>
      </trkpt>
      <trkpt lat="43.74863" lon="4.58894">
        <ele>3</ele>
        <time>2017-07-27T15:32:59Z</time>
      </trkpt>
      <trkpt lat="43.74837" lon="4.58867">
        <ele>3</ele>
        <time>2017-07-27T15:33:07Z</time>
      </trkpt>
      <trkpt lat="43.74817" lon="4.58847">
        <ele>3</ele>
        <time>2017-07-27T15:33:14Z</time>
      </trkpt>
      <trkpt lat="43.74802" lon="4.58831">
        <ele>2</ele>
        <time>2017-07-27T15:33:20Z</time>
      </trkpt>
      <trkpt lat="43.74782" lon="4.5881">
        <ele>2</ele>
        <time>2017-07-27T15:33:27Z</time>
      </trkpt>
      <trkpt lat="43.74764" lon="4.58796">
        <ele>2</ele>
        <time>2017-07-27T15:33:33Z</time>
      </trkpt>
      <trkpt lat="43.74744" lon="4.58783">
        <ele>2</ele>
        <time>2017-07-27T15:33:39Z</time>
      </trkpt>
      <trkpt lat="43.74719" lon="4.5877">
        <ele>2</ele>
        <time>2017-07-27T15:33:46Z</time>
      </trkpt>
      <trkpt lat="43.74704" lon="4.58762">
        <ele>2</ele>
        <time>2017-07-27T15:33:51Z</time>
      </trkpt>
      <trkpt lat="43.74675" lon="4.58746">
        <ele>2</ele>
        <time>2017-07-27T15:33:59Z</time>
      </trkpt>
      <trkpt lat="43.74639" lon="4.58726">
        <ele>3</ele>
        <time>2017-07-27T15:34:08Z</time>
      </trkpt>
      <trkpt lat="43.74612" lon="4.58712">
        <ele>3</ele>
        <time>2017-07-27T15:34:15Z</time>
      </trkpt>
      <trkpt lat="43.74571" lon="4.58694">
        <ele>3</ele>
        <time>2017-07-27T15:34:25Z</time>
      </trkpt>
      <trkpt lat="43.74533" lon="4.58677">
        <ele>3</ele>
        <time>2017-07-27T15:34:34Z</time>
      </trkpt>
      <trkpt lat="43.74509" lon="4.58668">
        <ele>4</ele>
        <time>2017-07-27T15:34:41Z</time>
      </trkpt>
      <trkpt lat="43.74483" lon="4.58656">
        <ele>3</ele>
        <time>2017-07-27T15:34:48Z</time>
      </trkpt>
      <trkpt lat="43.74456" lon="4.58647">
        <ele>3</ele>
        <time>2017-07-27T15:34:56Z</time>
      </trkpt>
      <trkpt lat="43.74456" lon="4.58647">
        <ele>3</ele>
        <time>2017-07-27T15:34:59Z</time>
      </trkpt>
      <trkpt lat="43.74454" lon="4.58647">
        <ele>3</ele>
        <time>2017-07-27T15:35:05Z</time>
      </trkpt>
      <trkpt lat="43.74454" lon="4.58647">
        <ele>3</ele>
        <time>2017-07-27T15:35:19Z</time>
      </trkpt>
      <trkpt lat="43.74454" lon="4.58647">
        <ele>3</ele>
        <time>2017-07-27T15:35:20Z</time>
      </trkpt>
      <trkpt lat="43.74452" lon="4.5864">
        <ele>3</ele>
        <time>2017-07-27T15:35:23Z</time>
      </trkpt>
      <trkpt lat="43.74447" lon="4.58618">
        <ele>3</ele>
        <time>2017-07-27T15:35:29Z</time>
      </trkpt>
      <trkpt lat="43.74442" lon="4.58594">
        <ele>3</ele>
        <time>2017-07-27T15:35:36Z</time>
      </trkpt>
      <trkpt lat="43.74437" lon="4.58571">
        <ele>3</ele>
        <time>2017-07-27T15:35:41Z</time>
      </trkpt>
      <trkpt lat="43.74431" lon="4.58543">
        <ele>3</ele>
        <time>2017-07-27T15:35:47Z</time>
      </trkpt>
      <trkpt lat="43.74425" lon="4.58518">
        <ele>2</ele>
        <time>2017-07-27T15:35:54Z</time>
      </trkpt>
      <trkpt lat="43.7442" lon="4.585">
        <ele>2</ele>
        <time>2017-07-27T15:35:59Z</time>
      </trkpt>
      <trkpt lat="43.74408" lon="4.58474">
        <ele>2</ele>
        <time>2017-07-27T15:36:06Z</time>
      </trkpt>
      <trkpt lat="43.74395" lon="4.58474">
        <ele>2</ele>
        <time>2017-07-27T15:36:10Z</time>
      </trkpt>
      <trkpt lat="43.74371" lon="4.58473">
        <ele>2</ele>
        <time>2017-07-27T15:36:17Z</time>
      </trkpt>
      <trkpt lat="43.74346" lon="4.58468">
        <ele>2</ele>
        <time>2017-07-27T15:36:24Z</time>
      </trkpt>
      <trkpt lat="43.74317" lon="4.58466">
        <ele>2</ele>
        <time>2017-07-27T15:36:32Z</time>
      </trkpt>
      <trkpt lat="43.7429" lon="4.58462">
        <ele>2</ele>
        <time>2017-07-27T15:36:40Z</time>
      </trkpt>
      <trkpt lat="43.74264" lon="4.58459">
        <ele>2</ele>
        <time>2017-07-27T15:36:48Z</time>
      </trkpt>
      <trkpt lat="43.74246" lon="4.58457">
        <ele>2</ele>
        <time>2017-07-27T15:36:54Z</time>
      </trkpt>
      <trkpt lat="43.74228" lon="4.58455">
        <ele>2</ele>
        <time>2017-07-27T15:37:00Z</time>
      </trkpt>
      <trkpt lat="43.74202" lon="4.58452">
        <ele>2</ele>
        <time>2017-07-27T15:37:08Z</time>
      </trkpt>
      <trkpt lat="43.74182" lon="4.5845">
        <ele>2</ele>
        <time>2017-07-27T15:37:14Z</time>
      </trkpt>
      <trkpt lat="43.74151" lon="4.58446">
        <ele>2</ele>
        <time>2017-07-27T15:37:23Z</time>
      </trkpt>
      <trkpt lat="43.7413" lon="4.58443">
        <ele>2</ele>
        <time>2017-07-27T15:37:29Z</time>
      </trkpt>
      <trkpt lat="43.74102" lon="4.58439">
        <ele>2</ele>
        <time>2017-07-27T15:37:37Z</time>
      </trkpt>
      <trkpt lat="43.74072" lon="4.58435">
        <ele>2</ele>
        <time>2017-07-27T15:37:46Z</time>
      </trkpt>
      <trkpt lat="43.74044" lon="4.58431">
        <ele>2</ele>
        <time>2017-07-27T15:37:54Z</time>
      </trkpt>
      <trkpt lat="43.7402" lon="4.58428">
        <ele>3</ele>
        <time>2017-07-27T15:38:01Z</time>
      </trkpt>
      <trkpt lat="43.73991" lon="4.58425">
        <ele>3</ele>
        <time>2017-07-27T15:38:09Z</time>
      </trkpt>
      <trkpt lat="43.73957" lon="4.58421">
        <ele>3</ele>
        <time>2017-07-27T15:38:18Z</time>
      </trkpt>
      <trkpt lat="43.73927" lon="4.58417">
        <ele>3</ele>
        <time>2017-07-27T15:38:26Z</time>
      </trkpt>
      <trkpt lat="43.73898" lon="4.58413">
        <ele>3</ele>
        <time>2017-07-27T15:38:34Z</time>
      </trkpt>
      <trkpt lat="43.73869" lon="4.5841">
        <ele>2</ele>
        <time>2017-07-27T15:38:42Z</time>
      </trkpt>
      <trkpt lat="43.73844" lon="4.58411">
        <ele>2</ele>
        <time>2017-07-27T15:38:49Z</time>
      </trkpt>
      <trkpt lat="43.73818" lon="4.58415">
        <ele>2</ele>
        <time>2017-07-27T15:38:56Z</time>
      </trkpt>
      <trkpt lat="43.73782" lon="4.58419">
        <ele>2</ele>
        <time>2017-07-27T15:39:05Z</time>
      </trkpt>
      <trkpt lat="43.73751" lon="4.58422">
        <ele>2</ele>
        <time>2017-07-27T15:39:13Z</time>
      </trkpt>
      <trkpt lat="43.7372" lon="4.58423">
        <ele>3</ele>
        <time>2017-07-27T15:39:21Z</time>
      </trkpt>
      <trkpt lat="43.73687" lon="4.58423">
        <ele>3</ele>
        <time>2017-07-27T15:39:29Z</time>
      </trkpt>
      <trkpt lat="43.73663" lon="4.58424">
        <ele>3</ele>
        <time>2017-07-27T15:39:35Z</time>
      </trkpt>
      <trkpt lat="43.73632" lon="4.58423">
        <ele>3</ele>
        <time>2017-07-27T15:39:43Z</time>
      </trkpt>
      <trkpt lat="43.7361" lon="4.58423">
        <ele>2</ele>
        <time>2017-07-27T15:39:50Z</time>
      </trkpt>
      <trkpt lat="43.73592" lon="4.58418">
        <ele>2</ele>
        <time>2017-07-27T15:39:55Z</time>
      </trkpt>
      <trkpt lat="43.73587" lon="4.58418">
        <ele>1</ele>
        <time>2017-07-27T15:39:56Z</time>
      </trkpt>
      <trkpt lat="43.73571" lon="4.58413">
        <ele>1</ele>
        <time>2017-07-27T15:40:01Z</time>
      </trkpt>
      <trkpt lat="43.73554" lon="4.58416">
        <ele>1</ele>
        <time>2017-07-27T15:40:07Z</time>
      </trkpt>
      <trkpt lat="43.7355" lon="4.5842">
        <ele>2</ele>
        <time>2017-07-27T15:40:08Z</time>
      </trkpt>
      <trkpt lat="43.73548" lon="4.58429">
        <ele>2</ele>
        <time>2017-07-27T15:40:10Z</time>
      </trkpt>
      <trkpt lat="43.73544" lon="4.58457">
        <ele>2</ele>
        <time>2017-07-27T15:40:16Z</time>
      </trkpt>
      <trkpt lat="43.73541" lon="4.58478">
        <ele>2</ele>
        <time>2017-07-27T15:40:20Z</time>
      </trkpt>
      <trkpt lat="43.73539" lon="4.5849">
        <ele>2</ele>
        <time>2017-07-27T15:40:22Z</time>
      </trkpt>
      <trkpt lat="43.73537" lon="4.58507">
        <ele>3</ele>
        <time>2017-07-27T15:40:25Z</time>
      </trkpt>
      <trkpt lat="43.73534" lon="4.58523">
        <ele>3</ele>
        <time>2017-07-27T15:40:28Z</time>
      </trkpt>
      <trkpt lat="43.73528" lon="4.58568">
        <ele>3</ele>
        <time>2017-07-27T15:40:36Z</time>
      </trkpt>
      <trkpt lat="43.73527" lon="4.58573">
        <ele>3</ele>
        <time>2017-07-27T15:40:37Z</time>
      </trkpt>
      <trkpt lat="43.73521" lon="4.58608">
        <ele>3</ele>
        <time>2017-07-27T15:40:44Z</time>
      </trkpt>
      <trkpt lat="43.73515" lon="4.58634">
        <ele>3</ele>
        <time>2017-07-27T15:40:50Z</time>
      </trkpt>
      <trkpt lat="43.73506" lon="4.58645">
        <ele>3</ele>
        <time>2017-07-27T15:40:53Z</time>
      </trkpt>
      <trkpt lat="43.73499" lon="4.58651">
        <ele>3</ele>
        <time>2017-07-27T15:40:55Z</time>
      </trkpt>
      <trkpt lat="43.73474" lon="4.58672">
        <ele>3</ele>
        <time>2017-07-27T15:41:03Z</time>
      </trkpt>
      <trkpt lat="43.73456" lon="4.58686">
        <ele>4</ele>
        <time>2017-07-27T15:41:10Z</time>
      </trkpt>
      <trkpt lat="43.73438" lon="4.58695">
        <ele>4</ele>
        <time>2017-07-27T15:41:16Z</time>
      </trkpt>
      <trkpt lat="43.73419" lon="4.58702">
        <ele>4</ele>
        <time>2017-07-27T15:41:21Z</time>
      </trkpt>
      <trkpt lat="43.73379" lon="4.58714">
        <ele>3</ele>
        <time>2017-07-27T15:41:32Z</time>
      </trkpt>
      <trkpt lat="43.73361" lon="4.58718">
        <ele>3</ele>
        <time>2017-07-27T15:41:38Z</time>
      </trkpt>
      <trkpt lat="43.73339" lon="4.58725">
        <ele>3</ele>
        <time>2017-07-27T15:41:45Z</time>
      </trkpt>
      <trkpt lat="43.73311" lon="4.58732">
        <ele>2</ele>
        <time>2017-07-27T15:41:53Z</time>
      </trkpt>
      <trkpt lat="43.73284" lon="4.58741">
        <ele>2</ele>
        <time>2017-07-27T15:42:00Z</time>
      </trkpt>
      <trkpt lat="43.73268" lon="4.58745">
        <ele>3</ele>
        <time>2017-07-27T15:42:05Z</time>
      </trkpt>
      <trkpt lat="43.73254" lon="4.58751">
        <ele>3</ele>
        <time>2017-07-27T15:42:10Z</time>
      </trkpt>
      <trkpt lat="43.73234" lon="4.58754">
        <ele>3</ele>
        <time>2017-07-27T15:42:16Z</time>
      </trkpt>
      <trkpt lat="43.73209" lon="4.58761">
        <ele>3</ele>
        <time>2017-07-27T15:42:23Z</time>
      </trkpt>
      <trkpt lat="43.73194" lon="4.58765">
        <ele>3</ele>
        <time>2017-07-27T15:42:27Z</time>
      </trkpt>
      <trkpt lat="43.7319" lon="4.58766">
        <ele>3</ele>
        <time>2017-07-27T15:42:28Z</time>
      </trkpt>
      <trkpt lat="43.7315" lon="4.58777">
        <ele>3</ele>
        <time>2017-07-27T15:42:37Z</time>
      </trkpt>
      <trkpt lat="43.73121" lon="4.58783">
        <ele>3</ele>
        <time>2017-07-27T15:42:44Z</time>
      </trkpt>
      <trkpt lat="43.73089" lon="4.58793">
        <ele>2</ele>
        <time>2017-07-27T15:42:52Z</time>
      </trkpt>
      <trkpt lat="43.73068" lon="4.58798">
        <ele>2</ele>
        <time>2017-07-27T15:42:58Z</time>
      </trkpt>
      <trkpt lat="43.73052" lon="4.58801">
        <ele>2</ele>
        <time>2017-07-27T15:43:04Z</time>
      </trkpt>
      <trkpt lat="43.73042" lon="4.58803">
        <ele>2</ele>
        <time>2017-07-27T15:43:09Z</time>
      </trkpt>
      <trkpt lat="43.73041" lon="4.58803">
        <ele>2</ele>
        <time>2017-07-27T15:43:10Z</time>
      </trkpt>
      <trkpt lat="43.7304" lon="4.58804">
        <ele>2</ele>
        <time>2017-07-27T15:43:11Z</time>
      </trkpt>
      <trkpt lat="43.73039" lon="4.58805">
        <ele>2</ele>
        <time>2017-07-27T15:43:12Z</time>
      </trkpt>
      <trkpt lat="43.73036" lon="4.58808">
        <ele>2</ele>
        <time>2017-07-27T15:43:15Z</time>
      </trkpt>
      <trkpt lat="43.73036" lon="4.5881">
        <ele>2</ele>
        <time>2017-07-27T15:43:16Z</time>
      </trkpt>
      <trkpt lat="43.73037" lon="4.58818">
        <ele>2</ele>
        <time>2017-07-27T15:43:19Z</time>
      </trkpt>
      <trkpt lat="43.73038" lon="4.58829">
        <ele>2</ele>
        <time>2017-07-27T15:43:22Z</time>
      </trkpt>
      <trkpt lat="43.73039" lon="4.58834">
        <ele>2</ele>
        <time>2017-07-27T15:43:23Z</time>
      </trkpt>
      <trkpt lat="43.7304" lon="4.58838">
        <ele>2</ele>
        <time>2017-07-27T15:43:24Z</time>
      </trkpt>
      <trkpt lat="43.73045" lon="4.5886">
        <ele>2</ele>
        <time>2017-07-27T15:43:28Z</time>
      </trkpt>
      <trkpt lat="43.73054" lon="4.58912">
        <ele>3</ele>
        <time>2017-07-27T15:43:36Z</time>
      </trkpt>
      <trkpt lat="43.73061" lon="4.58958">
        <ele>3</ele>
        <time>2017-07-27T15:43:44Z</time>
      </trkpt>
      <trkpt lat="43.73068" lon="4.5901">
        <ele>3</ele>
        <time>2017-07-27T15:43:52Z</time>
      </trkpt>
      <trkpt lat="43.73078" lon="4.59053">
        <ele>3</ele>
        <time>2017-07-27T15:43:59Z</time>
      </trkpt>
      <trkpt lat="43.73091" lon="4.5909">
        <ele>3</ele>
        <time>2017-07-27T15:44:06Z</time>
      </trkpt>
      <trkpt lat="43.73106" lon="4.59131">
        <ele>4</ele>
        <time>2017-07-27T15:44:13Z</time>
      </trkpt>
      <trkpt lat="43.73108" lon="4.59137">
        <ele>4</ele>
        <time>2017-07-27T15:44:14Z</time>
      </trkpt>
      <trkpt lat="43.73109" lon="4.59142">
        <ele>4</ele>
        <time>2017-07-27T15:44:15Z</time>
      </trkpt>
      <trkpt lat="43.73117" lon="4.59168">
        <ele>3</ele>
        <time>2017-07-27T15:44:20Z</time>
      </trkpt>
      <trkpt lat="43.73126" lon="4.59196">
        <ele>3</ele>
        <time>2017-07-27T15:44:25Z</time>
      </trkpt>
      <trkpt lat="43.73128" lon="4.59202">
        <ele>3</ele>
        <time>2017-07-27T15:44:26Z</time>
      </trkpt>
      <trkpt lat="43.73144" lon="4.59249">
        <ele>3</ele>
        <time>2017-07-27T15:44:34Z</time>
      </trkpt>
      <trkpt lat="43.73147" lon="4.59253">
        <ele>2</ele>
        <time>2017-07-27T15:44:35Z</time>
      </trkpt>
      <trkpt lat="43.73155" lon="4.59273">
        <ele>2</ele>
        <time>2017-07-27T15:44:39Z</time>
      </trkpt>
      <trkpt lat="43.73172" lon="4.5931">
        <ele>3</ele>
        <time>2017-07-27T15:44:47Z</time>
      </trkpt>
      <trkpt lat="43.73184" lon="4.59333">
        <ele>3</ele>
        <time>2017-07-27T15:44:51Z</time>
      </trkpt>
      <trkpt lat="43.73204" lon="4.59378">
        <ele>2</ele>
        <time>2017-07-27T15:44:58Z</time>
      </trkpt>
      <trkpt lat="43.73223" lon="4.59421">
        <ele>2</ele>
        <time>2017-07-27T15:45:05Z</time>
      </trkpt>
      <trkpt lat="43.73226" lon="4.59426">
        <ele>2</ele>
        <time>2017-07-27T15:45:06Z</time>
      </trkpt>
      <trkpt lat="43.73248" lon="4.59481">
        <ele>2</ele>
        <time>2017-07-27T15:45:14Z</time>
      </trkpt>
      <trkpt lat="43.73271" lon="4.59537">
        <ele>2</ele>
        <time>2017-07-27T15:45:22Z</time>
      </trkpt>
      <trkpt lat="43.73291" lon="4.59586">
        <ele>2</ele>
        <time>2017-07-27T15:45:30Z</time>
      </trkpt>
      <trkpt lat="43.73302" lon="4.59621">
        <ele>2</ele>
        <time>2017-07-27T15:45:36Z</time>
      </trkpt>
      <trkpt lat="43.73306" lon="4.59631">
        <ele>2</ele>
        <time>2017-07-27T15:45:38Z</time>
      </trkpt>
      <trkpt lat="43.73313" lon="4.59658">
        <ele>2</ele>
        <time>2017-07-27T15:45:43Z</time>
      </trkpt>
      <trkpt lat="43.73324" lon="4.59697">
        <ele>2</ele>
        <time>2017-07-27T15:45:50Z</time>
      </trkpt>
      <trkpt lat="43.73339" lon="4.59741">
        <ele>2</ele>
        <time>2017-07-27T15:45:58Z</time>
      </trkpt>
      <trkpt lat="43.7334" lon="4.59747">
        <ele>2</ele>
        <time>2017-07-27T15:45:59Z</time>
      </trkpt>
      <trkpt lat="43.73338" lon="4.59763">
        <ele>2</ele>
        <time>2017-07-27T15:46:02Z</time>
      </trkpt>
      <trkpt lat="43.73325" lon="4.5977">
        <ele>2</ele>
        <time>2017-07-27T15:46:05Z</time>
      </trkpt>
      <trkpt lat="43.73309" lon="4.5977">
        <ele>2</ele>
        <time>2017-07-27T15:46:08Z</time>
      </trkpt>
      <trkpt lat="43.73299" lon="4.5977">
        <ele>2</ele>
        <time>2017-07-27T15:46:10Z</time>
      </trkpt>
      <trkpt lat="43.73258" lon="4.59768">
        <ele>3</ele>
        <time>2017-07-27T15:46:18Z</time>
      </trkpt>
      <trkpt lat="43.73213" lon="4.59765">
        <ele>2</ele>
        <time>2017-07-27T15:46:27Z</time>
      </trkpt>
      <trkpt lat="43.73199" lon="4.59762">
        <ele>2</ele>
        <time>2017-07-27T15:46:30Z</time>
      </trkpt>
      <trkpt lat="43.73185" lon="4.59756">
        <ele>2</ele>
        <time>2017-07-27T15:46:33Z</time>
      </trkpt>
      <trkpt lat="43.73153" lon="4.59744">
        <ele>2</ele>
        <time>2017-07-27T15:46:40Z</time>
      </trkpt>
      <trkpt lat="43.7312" lon="4.59734">
        <ele>2</ele>
        <time>2017-07-27T15:46:47Z</time>
      </trkpt>
      <trkpt lat="43.73073" lon="4.59721">
        <ele>2</ele>
        <time>2017-07-27T15:46:57Z</time>
      </trkpt>
      <trkpt lat="43.73024" lon="4.59708">
        <ele>2</ele>
        <time>2017-07-27T15:47:07Z</time>
      </trkpt>
      <trkpt lat="43.72995" lon="4.59699">
        <ele>2</ele>
        <time>2017-07-27T15:47:14Z</time>
      </trkpt>
      <trkpt lat="43.72953" lon="4.59687">
        <ele>2</ele>
        <time>2017-07-27T15:47:23Z</time>
      </trkpt>
      <trkpt lat="43.72914" lon="4.59675">
        <ele>2</ele>
        <time>2017-07-27T15:47:31Z</time>
      </trkpt>
      <trkpt lat="43.72881" lon="4.5967">
        <ele>3</ele>
        <time>2017-07-27T15:47:38Z</time>
      </trkpt>
      <trkpt lat="43.7284" lon="4.59666">
        <ele>3</ele>
        <time>2017-07-27T15:47:46Z</time>
      </trkpt>
      <trkpt lat="43.72798" lon="4.59662">
        <ele>4</ele>
        <time>2017-07-27T15:47:54Z</time>
      </trkpt>
      <trkpt lat="43.72757" lon="4.59657">
        <ele>5</ele>
        <time>2017-07-27T15:48:02Z</time>
      </trkpt>
      <trkpt lat="43.7271" lon="4.59651">
        <ele>6</ele>
        <time>2017-07-27T15:48:11Z</time>
      </trkpt>
      <trkpt lat="43.72663" lon="4.59646">
        <ele>7</ele>
        <time>2017-07-27T15:48:20Z</time>
      </trkpt>
      <trkpt lat="43.72628" lon="4.59643">
        <ele>7</ele>
        <time>2017-07-27T15:48:27Z</time>
      </trkpt>
      <trkpt lat="43.72592" lon="4.59642">
        <ele>7</ele>
        <time>2017-07-27T15:48:35Z</time>
      </trkpt>
      <trkpt lat="43.72568" lon="4.59641">
        <ele>7</ele>
        <time>2017-07-27T15:48:41Z</time>
      </trkpt>
      <trkpt lat="43.72545" lon="4.59638">
        <ele>7</ele>
        <time>2017-07-27T15:48:47Z</time>
      </trkpt>
      <trkpt lat="43.7254" lon="4.59637">
        <ele>7</ele>
        <time>2017-07-27T15:48:48Z</time>
      </trkpt>
      <trkpt lat="43.72536" lon="4.59637">
        <ele>7</ele>
        <time>2017-07-27T15:48:49Z</time>
      </trkpt>
      <trkpt lat="43.72518" lon="4.59636">
        <ele>6</ele>
        <time>2017-07-27T15:48:54Z</time>
      </trkpt>
      <trkpt lat="43.72497" lon="4.59634">
        <ele>5</ele>
        <time>2017-07-27T15:49:00Z</time>
      </trkpt>
      <trkpt lat="43.72482" lon="4.59628">
        <ele>5</ele>
        <time>2017-07-27T15:49:04Z</time>
      </trkpt>
      <trkpt lat="43.7248" lon="4.59623">
        <ele>5</ele>
        <time>2017-07-27T15:49:05Z</time>
      </trkpt>
      <trkpt lat="43.7248" lon="4.59604">
        <ele>6</ele>
        <time>2017-07-27T15:49:08Z</time>
      </trkpt>
      <trkpt lat="43.72479" lon="4.59597">
        <ele>6</ele>
        <time>2017-07-27T15:49:09Z</time>
      </trkpt>
      <trkpt lat="43.72478" lon="4.59586">
        <ele>6</ele>
        <time>2017-07-27T15:49:11Z</time>
      </trkpt>
      <trkpt lat="43.72478" lon="4.59575">
        <ele>6</ele>
        <time>2017-07-27T15:49:13Z</time>
      </trkpt>
      <trkpt lat="43.72473" lon="4.59541">
        <ele>5</ele>
        <time>2017-07-27T15:49:20Z</time>
      </trkpt>
      <trkpt lat="43.72455" lon="4.59536">
        <ele>4</ele>
        <time>2017-07-27T15:49:24Z</time>
      </trkpt>
      <trkpt lat="43.72444" lon="4.59537">
        <ele>4</ele>
        <time>2017-07-27T15:49:26Z</time>
      </trkpt>
      <trkpt lat="43.7243" lon="4.59537">
        <ele>4</ele>
        <time>2017-07-27T15:49:29Z</time>
      </trkpt>
      <trkpt lat="43.72404" lon="4.59539">
        <ele>3</ele>
        <time>2017-07-27T15:49:35Z</time>
      </trkpt>
      <trkpt lat="43.72369" lon="4.59539">
        <ele>3</ele>
        <time>2017-07-27T15:49:43Z</time>
      </trkpt>
      <trkpt lat="43.72352" lon="4.59538">
        <ele>3</ele>
        <time>2017-07-27T15:49:47Z</time>
      </trkpt>
      <trkpt lat="43.72345" lon="4.59539">
        <ele>3</ele>
        <time>2017-07-27T15:49:49Z</time>
      </trkpt>
      <trkpt lat="43.72334" lon="4.59539">
        <ele>3</ele>
        <time>2017-07-27T15:49:54Z</time>
      </trkpt>
      <trkpt lat="43.72317" lon="4.59542">
        <ele>3</ele>
        <time>2017-07-27T15:50:00Z</time>
      </trkpt>
      <trkpt lat="43.72305" lon="4.59544">
        <ele>3</ele>
        <time>2017-07-27T15:50:04Z</time>
      </trkpt>
      <trkpt lat="43.72296" lon="4.59544">
        <ele>3</ele>
        <time>2017-07-27T15:50:07Z</time>
      </trkpt>
      <trkpt lat="43.7227" lon="4.59545">
        <ele>3</ele>
        <time>2017-07-27T15:50:15Z</time>
      </trkpt>
      <trkpt lat="43.72247" lon="4.59545">
        <ele>3</ele>
        <time>2017-07-27T15:50:21Z</time>
      </trkpt>
      <trkpt lat="43.7223" lon="4.59547">
        <ele>3</ele>
        <time>2017-07-27T15:50:26Z</time>
      </trkpt>
      <trkpt lat="43.7221" lon="4.59549">
        <ele>3</ele>
        <time>2017-07-27T15:50:32Z</time>
      </trkpt>
      <trkpt lat="43.72193" lon="4.59545">
        <ele>2</ele>
        <time>2017-07-27T15:50:38Z</time>
      </trkpt>
      <trkpt lat="43.72191" lon="4.59542">
        <ele>2</ele>
        <time>2017-07-27T15:50:40Z</time>
      </trkpt>
      <trkpt lat="43.72187" lon="4.59534">
        <ele>2</ele>
        <time>2017-07-27T15:50:43Z</time>
      </trkpt>
      <trkpt lat="43.7218" lon="4.59511">
        <ele>2</ele>
        <time>2017-07-27T15:50:49Z</time>
      </trkpt>
      <trkpt lat="43.72169" lon="4.59506">
        <ele>1</ele>
        <time>2017-07-27T15:50:53Z</time>
      </trkpt>
      <trkpt lat="43.7215" lon="4.59504">
        <ele>2</ele>
        <time>2017-07-27T15:50:58Z</time>
      </trkpt>
      <trkpt lat="43.72137" lon="4.59505">
        <ele>2</ele>
        <time>2017-07-27T15:51:01Z</time>
      </trkpt>
      <trkpt lat="43.72123" lon="4.59505">
        <ele>3</ele>
        <time>2017-07-27T15:51:04Z</time>
      </trkpt>
      <trkpt lat="43.72119" lon="4.59506">
        <ele>3</ele>
        <time>2017-07-27T15:51:05Z</time>
      </trkpt>
      <trkpt lat="43.72104" lon="4.59507">
        <ele>3</ele>
        <time>2017-07-27T15:51:09Z</time>
      </trkpt>
      <trkpt lat="43.72078" lon="4.59509">
        <ele>3</ele>
        <time>2017-07-27T15:51:15Z</time>
      </trkpt>
      <trkpt lat="43.72055" lon="4.59511">
        <ele>4</ele>
        <time>2017-07-27T15:51:21Z</time>
      </trkpt>
      <trkpt lat="43.72023" lon="4.59514">
        <ele>4</ele>
        <time>2017-07-27T15:51:29Z</time>
      </trkpt>
      <trkpt lat="43.72004" lon="4.59516">
        <ele>4</ele>
        <time>2017-07-27T15:51:33Z</time>
      </trkpt>
      <trkpt lat="43.71996" lon="4.59516">
        <ele>4</ele>
        <time>2017-07-27T15:51:35Z</time>
      </trkpt>
      <trkpt lat="43.71971" lon="4.5952">
        <ele>4</ele>
        <time>2017-07-27T15:51:42Z</time>
      </trkpt>
      <trkpt lat="43.71957" lon="4.59522">
        <ele>4</ele>
        <time>2017-07-27T15:51:47Z</time>
      </trkpt>
      <trkpt lat="43.71956" lon="4.59521">
        <ele>4</ele>
        <time>2017-07-27T15:51:51Z</time>
      </trkpt>
      <trkpt lat="43.71956" lon="4.59521">
        <ele>4</ele>
        <time>2017-07-27T15:52:06Z</time>
      </trkpt>
      <trkpt lat="43.71956" lon="4.59521">
        <ele>4</ele>
        <time>2017-07-27T15:52:19Z</time>
      </trkpt>
      <trkpt lat="43.71956" lon="4.59521">
        <ele>4</ele>
        <time>2017-07-27T15:52:25Z</time>
      </trkpt>
      <trkpt lat="43.71921" lon="4.59529">
        <ele>4</ele>
        <time>2017-07-27T15:53:10Z</time>
      </trkpt>
      <trkpt lat="43.71899" lon="4.59532">
        <ele>4</ele>
        <time>2017-07-27T15:53:16Z</time>
      </trkpt>
      <trkpt lat="43.71866" lon="4.59539">
        <ele>3</ele>
        <time>2017-07-27T15:53:24Z</time>
      </trkpt>
      <trkpt lat="43.71832" lon="4.59546">
        <ele>3</ele>
        <time>2017-07-27T15:53:32Z</time>
      </trkpt>
      <trkpt lat="43.71803" lon="4.59549">
        <ele>3</ele>
        <time>2017-07-27T15:53:39Z</time>
      </trkpt>
      <trkpt lat="43.71774" lon="4.59553">
        <ele>3</ele>
        <time>2017-07-27T15:53:46Z</time>
      </trkpt>
      <trkpt lat="43.71758" lon="4.59556">
        <ele>3</ele>
        <time>2017-07-27T15:53:50Z</time>
      </trkpt>
      <trkpt lat="43.71749" lon="4.59556">
        <ele>3</ele>
        <time>2017-07-27T15:53:52Z</time>
      </trkpt>
      <trkpt lat="43.71711" lon="4.59564">
        <ele>3</ele>
        <time>2017-07-27T15:54:01Z</time>
      </trkpt>
      <trkpt lat="43.71702" lon="4.59565">
        <ele>3</ele>
        <time>2017-07-27T15:54:03Z</time>
      </trkpt>
      <trkpt lat="43.71695" lon="4.59567">
        <ele>3</ele>
        <time>2017-07-27T15:54:05Z</time>
      </trkpt>
      <trkpt lat="43.71673" lon="4.59571">
        <ele>4</ele>
        <time>2017-07-27T15:54:10Z</time>
      </trkpt>
      <trkpt lat="43.71646" lon="4.59576">
        <ele>4</ele>
        <time>2017-07-27T15:54:17Z</time>
      </trkpt>
      <trkpt lat="43.71616" lon="4.59581">
        <ele>3</ele>
        <time>2017-07-27T15:54:24Z</time>
      </trkpt>
      <trkpt lat="43.71579" lon="4.59588">
        <ele>3</ele>
        <time>2017-07-27T15:54:32Z</time>
      </trkpt>
      <trkpt lat="43.71553" lon="4.59592">
        <ele>3</ele>
        <time>2017-07-27T15:54:38Z</time>
      </trkpt>
      <trkpt lat="43.71522" lon="4.59597">
        <ele>3</ele>
        <time>2017-07-27T15:54:45Z</time>
      </trkpt>
      <trkpt lat="43.7148" lon="4.59605">
        <ele>2</ele>
        <time>2017-07-27T15:54:54Z</time>
      </trkpt>
      <trkpt lat="43.71433" lon="4.59613">
        <ele>2</ele>
        <time>2017-07-27T15:55:04Z</time>
      </trkpt>
      <trkpt lat="43.71397" lon="4.59618">
        <ele>2</ele>
        <time>2017-07-27T15:55:12Z</time>
      </trkpt>
      <trkpt lat="43.7136" lon="4.59622">
        <ele>2</ele>
        <time>2017-07-27T15:55:20Z</time>
      </trkpt>
      <trkpt lat="43.71346" lon="4.59623">
        <ele>2</ele>
        <time>2017-07-27T15:55:23Z</time>
      </trkpt>
      <trkpt lat="43.71332" lon="4.59624">
        <ele>3</ele>
        <time>2017-07-27T15:55:26Z</time>
      </trkpt>
      <trkpt lat="43.71327" lon="4.59624">
        <ele>3</ele>
        <time>2017-07-27T15:55:27Z</time>
      </trkpt>
      <trkpt lat="43.71286" lon="4.59625">
        <ele>3</ele>
        <time>2017-07-27T15:55:36Z</time>
      </trkpt>
      <trkpt lat="43.71245" lon="4.59627">
        <ele>4</ele>
        <time>2017-07-27T15:55:45Z</time>
      </trkpt>
      <trkpt lat="43.71236" lon="4.59628">
        <ele>4</ele>
        <time>2017-07-27T15:55:47Z</time>
      </trkpt>
      <trkpt lat="43.71218" lon="4.59629">
        <ele>4</ele>
        <time>2017-07-27T15:55:51Z</time>
      </trkpt>
      <trkpt lat="43.71205" lon="4.5963">
        <ele>3</ele>
        <time>2017-07-27T15:55:54Z</time>
      </trkpt>
      <trkpt lat="43.71187" lon="4.59632">
        <ele>3</ele>
        <time>2017-07-27T15:55:58Z</time>
      </trkpt>
      <trkpt lat="43.71164" lon="4.59631">
        <ele>3</ele>
        <time>2017-07-27T15:56:04Z</time>
      </trkpt>
      <trkpt lat="43.7116" lon="4.59631">
        <ele>3</ele>
        <time>2017-07-27T15:56:05Z</time>
      </trkpt>
      <trkpt lat="43.71138" lon="4.59632">
        <ele>3</ele>
        <time>2017-07-27T15:56:10Z</time>
      </trkpt>
      <trkpt lat="43.7111" lon="4.59635">
        <ele>4</ele>
        <time>2017-07-27T15:56:17Z</time>
      </trkpt>
      <trkpt lat="43.71077" lon="4.59638">
        <ele>5</ele>
        <time>2017-07-27T15:56:25Z</time>
      </trkpt>
      <trkpt lat="43.71042" lon="4.59649">
        <ele>5</ele>
        <time>2017-07-27T15:56:33Z</time>
      </trkpt>
      <trkpt lat="43.71003" lon="4.59668">
        <ele>6</ele>
        <time>2017-07-27T15:56:42Z</time>
      </trkpt>
      <trkpt lat="43.70976" lon="4.59682">
        <ele>5</ele>
        <time>2017-07-27T15:56:49Z</time>
      </trkpt>
      <trkpt lat="43.70957" lon="4.59692">
        <ele>4</ele>
        <time>2017-07-27T15:56:55Z</time>
      </trkpt>
      <trkpt lat="43.70951" lon="4.59695">
        <ele>4</ele>
        <time>2017-07-27T15:57:00Z</time>
      </trkpt>
      <trkpt lat="43.70951" lon="4.59695">
        <ele>4</ele>
        <time>2017-07-27T15:57:08Z</time>
      </trkpt>
      <trkpt lat="43.70951" lon="4.59695">
        <ele>4</ele>
        <time>2017-07-27T15:57:19Z</time>
      </trkpt>
      <trkpt lat="43.70951" lon="4.59695">
        <ele>4</ele>
        <time>2017-07-27T15:57:33Z</time>
      </trkpt>
      <trkpt lat="43.70951" lon="4.59695">
        <ele>4</ele>
        <time>2017-07-27T15:57:47Z</time>
      </trkpt>
      <trkpt lat="43.7095" lon="4.59696">
        <ele>4</ele>
        <time>2017-07-27T15:57:52Z</time>
      </trkpt>
      <trkpt lat="43.70949" lon="4.59699">
        <ele>4</ele>
        <time>2017-07-27T15:57:54Z</time>
      </trkpt>
      <trkpt lat="43.70948" lon="4.59705">
        <ele>4</ele>
        <time>2017-07-27T15:57:56Z</time>
      </trkpt>
      <trkpt lat="43.70945" lon="4.59717">
        <ele>4</ele>
        <time>2017-07-27T15:57:59Z</time>
      </trkpt>
      <trkpt lat="43.70936" lon="4.59742">
        <ele>3</ele>
        <time>2017-07-27T15:58:05Z</time>
      </trkpt>
      <trkpt lat="43.70924" lon="4.59749">
        <ele>3</ele>
        <time>2017-07-27T15:58:09Z</time>
      </trkpt>
      <trkpt lat="43.70913" lon="4.59755">
        <ele>2</ele>
        <time>2017-07-27T15:58:13Z</time>
      </trkpt>
      <trkpt lat="43.7091" lon="4.59757">
        <ele>2</ele>
        <time>2017-07-27T15:58:14Z</time>
      </trkpt>
      <trkpt lat="43.70904" lon="4.59764">
        <ele>3</ele>
        <time>2017-07-27T15:58:16Z</time>
      </trkpt>
      <trkpt lat="43.70887" lon="4.59766">
        <ele>3</ele>
        <time>2017-07-27T15:58:54Z</time>
      </trkpt>
      <trkpt lat="43.70875" lon="4.59772">
        <ele>3</ele>
      </trkpt>
      <trkpt lat="43.70858" lon="4.59802">
        <ele>4</ele>
        <time>2017-07-27T16:01:15Z</time>
      </trkpt>
      <trkpt lat="43.70856" lon="4.59806">
        <ele>4</ele>
        <time>2017-07-27T16:01:16Z</time>
      </trkpt>
      <trkpt lat="43.70852" lon="4.59816">
        <ele>4</ele>
        <time>2017-07-27T16:01:18Z</time>
      </trkpt>
      <trkpt lat="43.7085" lon="4.59821">
        <ele>4</ele>
        <time>2017-07-27T16:01:19Z</time>
      </trkpt>
      <trkpt lat="43.70842" lon="4.59835">
        <ele>5</ele>
        <time>2017-07-27T16:01:22Z</time>
      </trkpt>
      <trkpt lat="43.7082" lon="4.59871">
        <ele>5</ele>
        <time>2017-07-27T16:01:30Z</time>
      </trkpt>
      <trkpt lat="43.70802" lon="4.59904">
        <ele>4</ele>
        <time>2017-07-27T16:01:37Z</time>
      </trkpt>
      <trkpt lat="43.70781" lon="4.5994">
        <ele>4</ele>
        <time>2017-07-27T16:01:45Z</time>
      </trkpt>
      <trkpt lat="43.70757" lon="4.59977">
        <ele>4</ele>
        <time>2017-07-27T16:01:53Z</time>
      </trkpt>
      <trkpt lat="43.70731" lon="4.60003">
        <ele>4</ele>
        <time>2017-07-27T16:02:00Z</time>
      </trkpt>
      <trkpt lat="43.70701" lon="4.6003">
        <ele>4</ele>
        <time>2017-07-27T16:02:08Z</time>
      </trkpt>
      <trkpt lat="43.70676" lon="4.60057">
        <ele>4</ele>
        <time>2017-07-27T16:02:15Z</time>
      </trkpt>
      <trkpt lat="43.70648" lon="4.6009">
        <ele>4</ele>
        <time>2017-07-27T16:02:23Z</time>
      </trkpt>
      <trkpt lat="43.70621" lon="4.60125">
        <ele>3</ele>
        <time>2017-07-27T16:02:31Z</time>
      </trkpt>
      <trkpt lat="43.70599" lon="4.60157">
        <ele>3</ele>
        <time>2017-07-27T16:02:38Z</time>
      </trkpt>
      <trkpt lat="43.70578" lon="4.60192">
        <ele>3</ele>
        <time>2017-07-27T16:02:45Z</time>
      </trkpt>
      <trkpt lat="43.70554" lon="4.60231">
        <ele>4</ele>
        <time>2017-07-27T16:02:52Z</time>
      </trkpt>
      <trkpt lat="43.70538" lon="4.60264">
        <ele>4</ele>
        <time>2017-07-27T16:02:58Z</time>
      </trkpt>
      <trkpt lat="43.7052" lon="4.60304">
        <ele>3</ele>
        <time>2017-07-27T16:03:05Z</time>
      </trkpt>
      <trkpt lat="43.70505" lon="4.60337">
        <ele>4</ele>
        <time>2017-07-27T16:03:11Z</time>
      </trkpt>
      <trkpt lat="43.70487" lon="4.60378">
        <ele>4</ele>
        <time>2017-07-27T16:03:18Z</time>
      </trkpt>
      <trkpt lat="43.70466" lon="4.60419">
        <ele>4</ele>
        <time>2017-07-27T16:03:25Z</time>
      </trkpt>
      <trkpt lat="43.70445" lon="4.60455">
        <ele>4</ele>
        <time>2017-07-27T16:03:33Z</time>
      </trkpt>
      <trkpt lat="43.70432" lon="4.60476">
        <ele>4</ele>
        <time>2017-07-27T16:03:39Z</time>
      </trkpt>
      <trkpt lat="43.70418" lon="4.60498">
        <ele>4</ele>
        <time>2017-07-27T16:03:46Z</time>
      </trkpt>
      <trkpt lat="43.70403" lon="4.60521">
        <ele>5</ele>
        <time>2017-07-27T16:03:52Z</time>
      </trkpt>
      <trkpt lat="43.70384" lon="4.60545">
        <ele>5</ele>
        <time>2017-07-27T16:04:00Z</time>
      </trkpt>
      <trkpt lat="43.70365" lon="4.60565">
        <ele>5</ele>
        <time>2017-07-27T16:04:07Z</time>
      </trkpt>
      <trkpt lat="43.70348" lon="4.60582">
        <ele>6</ele>
        <time>2017-07-27T16:04:13Z</time>
      </trkpt>
      <trkpt lat="43.70327" lon="4.60604">
        <ele>6</ele>
        <time>2017-07-27T16:04:20Z</time>
      </trkpt>
      <trkpt lat="43.70305" lon="4.60621">
        <ele>6</ele>
        <time>2017-07-27T16:04:27Z</time>
      </trkpt>
      <trkpt lat="43.70286" lon="4.60622">
        <ele>5</ele>
        <time>2017-07-27T16:04:32Z</time>
      </trkpt>
      <trkpt lat="43.70274" lon="4.60631">
        <ele>5</ele>
        <time>2017-07-27T16:04:36Z</time>
      </trkpt>
      <trkpt lat="43.70262" lon="4.60658">
        <ele>6</ele>
        <time>2017-07-27T16:04:42Z</time>
      </trkpt>
      <trkpt lat="43.70254" lon="4.60669">
        <ele>6</ele>
        <time>2017-07-27T16:04:45Z</time>
      </trkpt>
      <trkpt lat="43.70244" lon="4.6068">
        <ele>6</ele>
        <time>2017-07-27T16:04:48Z</time>
      </trkpt>
      <trkpt lat="43.70241" lon="4.60684">
        <ele>6</ele>
        <time>2017-07-27T16:04:49Z</time>
      </trkpt>
      <trkpt lat="43.70234" lon="4.60693">
        <ele>6</ele>
        <time>2017-07-27T16:04:51Z</time>
      </trkpt>
      <trkpt lat="43.70227" lon="4.60699">
        <ele>6</ele>
        <time>2017-07-27T16:04:53Z</time>
      </trkpt>
      <trkpt lat="43.70224" lon="4.60702">
        <ele>6</ele>
        <time>2017-07-27T16:04:54Z</time>
      </trkpt>
      <trkpt lat="43.7021" lon="4.60718">
        <ele>6</ele>
        <time>2017-07-27T16:04:58Z</time>
      </trkpt>
      <trkpt lat="43.70206" lon="4.60721">
        <ele>6</ele>
        <time>2017-07-27T16:04:59Z</time>
      </trkpt>
      <trkpt lat="43.70182" lon="4.60747">
        <ele>6</ele>
        <time>2017-07-27T16:05:06Z</time>
      </trkpt>
      <trkpt lat="43.70164" lon="4.6077">
        <ele>7</ele>
        <time>2017-07-27T16:05:13Z</time>
      </trkpt>
      <trkpt lat="43.7015" lon="4.60787">
        <ele>6</ele>
        <time>2017-07-27T16:05:20Z</time>
      </trkpt>
      <trkpt lat="43.7015" lon="4.60787">
        <ele>6</ele>
        <time>2017-07-27T16:05:24Z</time>
      </trkpt>
      <trkpt lat="43.7015" lon="4.60787">
        <ele>6</ele>
        <time>2017-07-27T16:05:38Z</time>
      </trkpt>
      <trkpt lat="43.7015" lon="4.60787">
        <ele>6</ele>
        <time>2017-07-27T16:05:53Z</time>
      </trkpt>
      <trkpt lat="43.7015" lon="4.60787">
        <ele>6</ele>
        <time>2017-07-27T16:06:05Z</time>
      </trkpt>
      <trkpt lat="43.7015" lon="4.60787">
        <ele>6</ele>
        <time>2017-07-27T16:06:18Z</time>
      </trkpt>
      <trkpt lat="43.7015" lon="4.60787">
        <ele>6</ele>
        <time>2017-07-27T16:06:30Z</time>
      </trkpt>
      <trkpt lat="43.7015" lon="4.60787">
        <ele>6</ele>
        <time>2017-07-27T16:06:41Z</time>
      </trkpt>
      <trkpt lat="43.7015" lon="4.60787">
        <ele>6</ele>
        <time>2017-07-27T16:06:53Z</time>
      </trkpt>
      <trkpt lat="43.70146" lon="4.60789">
        <ele>6</ele>
        <time>2017-07-27T16:07:00Z</time>
      </trkpt>
      <trkpt lat="43.70132" lon="4.60793">
        <ele>6</ele>
        <time>2017-07-27T16:07:05Z</time>
      </trkpt>
      <trkpt lat="43.7012" lon="4.60797">
        <ele>6</ele>
        <time>2017-07-27T16:07:08Z</time>
      </trkpt>
      <trkpt lat="43.69944" lon="4.60823">
        <ele>5</ele>
        <time>2017-07-27T16:07:53Z</time>
      </trkpt>
      <trkpt lat="43.69836" lon="4.60845">
        <ele>5</ele>
      </trkpt>
      <trkpt lat="43.69733" lon="4.60864">
        <ele>5</ele>
      </trkpt>
      <trkpt lat="43.69704" lon="4.60873">
        <ele>5</ele>
      </trkpt>
      <trkpt lat="43.69638" lon="4.60904">
        <ele>5</ele>
        <time>2017-07-27T19:02:22Z</time>
      </trkpt>
      <trkpt lat="43.69635" lon="4.60905">
        <ele>5</ele>
        <time>2017-07-27T19:02:21Z</time>
      </trkpt>
      <trkpt lat="43.69633" lon="4.60906">
        <ele>5</ele>
        <time>2017-07-27T19:02:20Z</time>
      </trkpt>
      <trkpt lat="43.69631" lon="4.60907">
        <ele>5</ele>
        <time>2017-07-27T19:02:19Z</time>
      </trkpt>
      <trkpt lat="43.69629" lon="4.60908">
        <ele>5</ele>
        <time>2017-07-27T19:02:18Z</time>
      </trkpt>
      <trkpt lat="43.69609" lon="4.60917">
        <ele>5</ele>
        <time>2017-07-27T19:02:10Z</time>
      </trkpt>
      <trkpt lat="43.69587" lon="4.60927">
        <ele>5</ele>
        <time>2017-07-27T19:02:03Z</time>
      </trkpt>
      <trkpt lat="43.69563" lon="4.60938">
        <ele>5</ele>
        <time>2017-07-27T19:01:56Z</time>
      </trkpt>
      <trkpt lat="43.69535" lon="4.60954">
        <ele>6</ele>
        <time>2017-07-27T19:01:49Z</time>
      </trkpt>
      <trkpt lat="43.695" lon="4.60969">
        <ele>6</ele>
        <time>2017-07-27T19:01:42Z</time>
      </trkpt>
      <trkpt lat="43.69474" lon="4.60982">
        <ele>6</ele>
        <time>2017-07-27T19:01:37Z</time>
      </trkpt>
      <trkpt lat="43.69469" lon="4.60985">
        <ele>6</ele>
        <time>2017-07-27T19:01:36Z</time>
      </trkpt>
      <trkpt lat="43.69453" lon="4.60992">
        <ele>7</ele>
        <time>2017-07-27T19:01:33Z</time>
      </trkpt>
      <trkpt lat="43.69448" lon="4.60996">
        <ele>7</ele>
        <time>2017-07-27T19:01:32Z</time>
      </trkpt>
      <trkpt lat="43.69423" lon="4.61012">
        <ele>7</ele>
        <time>2017-07-27T19:01:26Z</time>
      </trkpt>
      <trkpt lat="43.6941" lon="4.61021">
        <ele>7</ele>
        <time>2017-07-27T19:01:22Z</time>
      </trkpt>
      <trkpt lat="43.69392" lon="4.6097">
        <ele>7</ele>
      </trkpt>
      <trkpt lat="43.69381" lon="4.60944">
        <ele>7</ele>
      </trkpt>
      <trkpt lat="43.6938" lon="4.60939">
        <ele>7</ele>
      </trkpt>
      <trkpt lat="43.69343" lon="4.60956">
        <ele>7</ele>
        <time>2017-07-27T19:00:33Z</time>
      </trkpt>
      <trkpt lat="43.69232" lon="4.61006">
        <ele>8</ele>
      </trkpt>
      <trkpt lat="43.69202" lon="4.61022">
        <ele>7</ele>
      </trkpt>
      <trkpt lat="43.69189" lon="4.61034">
        <ele>7</ele>
      </trkpt>
      <trkpt lat="43.69181" lon="4.6105">
        <ele>8</ele>
      </trkpt>
      <trkpt lat="43.69179" lon="4.61057">
        <ele>8</ele>
      </trkpt>
      <trkpt lat="43.6916" lon="4.611">
        <ele>8</ele>
      </trkpt>
      <trkpt lat="43.69144" lon="4.61122">
        <ele>8</ele>
      </trkpt>
      <trkpt lat="43.69129" lon="4.61139">
        <ele>9</ele>
      </trkpt>
      <trkpt lat="43.68996" lon="4.61272">
        <ele>9</ele>
        <time>2017-07-27T18:59:47Z</time>
      </trkpt>
      <trkpt lat="43.68991" lon="4.61276">
        <ele>9</ele>
        <time>2017-07-27T18:59:46Z</time>
      </trkpt>
      <trkpt lat="43.68986" lon="4.6128">
        <ele>9</ele>
        <time>2017-07-27T18:59:45Z</time>
      </trkpt>
      <trkpt lat="43.68829" lon="4.61419">
        <ele>9</ele>
      </trkpt>
      <trkpt lat="43.68733" lon="4.6149">
        <ele>6</ele>
        <time>2017-07-27T18:52:09Z</time>
      </trkpt>
      <trkpt lat="43.68732" lon="4.61488">
        <ele>6</ele>
        <time>2017-07-27T18:52:06Z</time>
      </trkpt>
      <trkpt lat="43.68732" lon="4.61488">
        <ele>6</ele>
        <time>2017-07-27T18:51:56Z</time>
      </trkpt>
      <trkpt lat="43.68732" lon="4.61488">
        <ele>6</ele>
        <time>2017-07-27T18:51:45Z</time>
      </trkpt>
      <trkpt lat="43.68732" lon="4.61488">
        <ele>6</ele>
        <time>2017-07-27T18:51:33Z</time>
      </trkpt>
      <trkpt lat="43.68732" lon="4.61488">
        <ele>6</ele>
        <time>2017-07-27T18:51:20Z</time>
      </trkpt>
      <trkpt lat="43.68732" lon="4.61489">
        <ele>6</ele>
        <time>2017-07-27T18:51:06Z</time>
      </trkpt>
      <trkpt lat="43.68732" lon="4.61489">
        <ele>6</ele>
        <time>2017-07-27T18:50:55Z</time>
      </trkpt>
      <trkpt lat="43.68732" lon="4.61489">
        <ele>6</ele>
        <time>2017-07-27T18:50:43Z</time>
      </trkpt>
      <trkpt lat="43.68731" lon="4.61488">
        <ele>6</ele>
        <time>2017-07-27T18:50:31Z</time>
      </trkpt>
      <trkpt lat="43.68731" lon="4.61488">
        <ele>6</ele>
        <time>2017-07-27T18:50:18Z</time>
      </trkpt>
      <trkpt lat="43.68731" lon="4.61488">
        <ele>6</ele>
        <time>2017-07-27T18:50:07Z</time>
      </trkpt>
      <trkpt lat="43.68731" lon="4.61488">
        <ele>6</ele>
        <time>2017-07-27T18:49:55Z</time>
      </trkpt>
      <trkpt lat="43.68732" lon="4.61488">
        <ele>6</ele>
        <time>2017-07-27T18:49:45Z</time>
      </trkpt>
      <trkpt lat="43.68732" lon="4.61488">
        <ele>6</ele>
        <time>2017-07-27T18:49:33Z</time>
      </trkpt>
      <trkpt lat="43.68732" lon="4.61488">
        <ele>6</ele>
        <time>2017-07-27T18:49:21Z</time>
      </trkpt>
      <trkpt lat="43.68731" lon="4.61489">
        <ele>6</ele>
        <time>2017-07-27T18:49:05Z</time>
      </trkpt>
      <trkpt lat="43.68731" lon="4.61489">
        <ele>6</ele>
        <time>2017-07-27T18:48:51Z</time>
      </trkpt>
      <trkpt lat="43.68731" lon="4.61489">
        <ele>6</ele>
        <time>2017-07-27T18:48:37Z</time>
      </trkpt>
      <trkpt lat="43.68732" lon="4.61489">
        <ele>6</ele>
        <time>2017-07-27T18:48:22Z</time>
      </trkpt>
      <trkpt lat="43.68732" lon="4.61489">
        <ele>6</ele>
        <time>2017-07-27T18:48:05Z</time>
      </trkpt>
      <trkpt lat="43.68732" lon="4.61489">
        <ele>6</ele>
        <time>2017-07-27T18:47:48Z</time>
      </trkpt>
      <trkpt lat="43.68732" lon="4.61489">
        <ele>6</ele>
        <time>2017-07-27T18:47:37Z</time>
      </trkpt>
      <trkpt lat="43.68732" lon="4.61489">
        <ele>6</ele>
        <time>2017-07-27T18:47:24Z</time>
      </trkpt>
      <trkpt lat="43.68732" lon="4.61489">
        <ele>6</ele>
        <time>2017-07-27T18:47:16Z</time>
      </trkpt>
      <trkpt lat="43.68732" lon="4.61489">
        <ele>6</ele>
        <time>2017-07-27T18:47:03Z</time>
      </trkpt>
      <trkpt lat="43.68732" lon="4.61489">
        <ele>6</ele>
        <time>2017-07-27T18:46:54Z</time>
      </trkpt>
      <trkpt lat="43.68732" lon="4.61489">
        <ele>6</ele>
        <time>2017-07-27T18:46:43Z</time>
      </trkpt>
      <trkpt lat="43.68732" lon="4.61489">
        <ele>6</ele>
        <time>2017-07-27T18:46:31Z</time>
      </trkpt>
      <trkpt lat="43.68732" lon="4.61489">
        <ele>6</ele>
        <time>2017-07-27T18:46:16Z</time>
      </trkpt>
      <trkpt lat="43.68732" lon="4.61489">
        <ele>6</ele>
        <time>2017-07-27T18:46:02Z</time>
      </trkpt>
      <trkpt lat="43.68732" lon="4.61489">
        <ele>6</ele>
        <time>2017-07-27T18:45:48Z</time>
      </trkpt>
      <trkpt lat="43.68732" lon="4.61489">
        <ele>6</ele>
        <time>2017-07-27T18:45:38Z</time>
      </trkpt>
      <trkpt lat="43.68732" lon="4.61489">
        <ele>6</ele>
        <time>2017-07-27T18:45:25Z</time>
      </trkpt>
      <trkpt lat="43.68732" lon="4.61489">
        <ele>6</ele>
        <time>2017-07-27T18:45:16Z</time>
      </trkpt>
      <trkpt lat="43.68732" lon="4.61487">
        <ele>6</ele>
        <time>2017-07-27T18:45:09Z</time>
      </trkpt>
      <trkpt lat="43.68732" lon="4.61487">
        <ele>6</ele>
        <time>2017-07-27T18:44:55Z</time>
      </trkpt>
      <trkpt lat="43.68732" lon="4.61487">
        <ele>6</ele>
        <time>2017-07-27T18:44:43Z</time>
      </trkpt>
      <trkpt lat="43.68732" lon="4.61487">
        <ele>6</ele>
        <time>2017-07-27T18:44:31Z</time>
      </trkpt>
      <trkpt lat="43.68732" lon="4.61487">
        <ele>6</ele>
        <time>2017-07-27T18:44:19Z</time>
      </trkpt>
      <trkpt lat="43.68732" lon="4.61487">
        <ele>6</ele>
        <time>2017-07-27T18:44:04Z</time>
      </trkpt>
      <trkpt lat="43.68732" lon="4.61487">
        <ele>6</ele>
        <time>2017-07-27T18:43:50Z</time>
      </trkpt>
      <trkpt lat="43.68732" lon="4.61487">
        <ele>6</ele>
        <time>2017-07-27T18:43:36Z</time>
      </trkpt>
      <trkpt lat="43.68732" lon="4.61487">
        <ele>6</ele>
        <time>2017-07-27T18:43:25Z</time>
      </trkpt>
      <trkpt lat="43.68732" lon="4.61487">
        <ele>6</ele>
        <time>2017-07-27T18:43:14Z</time>
      </trkpt>
      <trkpt lat="43.68732" lon="4.61487">
        <ele>6</ele>
        <time>2017-07-27T18:42:59Z</time>
      </trkpt>
      <trkpt lat="43.68732" lon="4.61487">
        <ele>6</ele>
        <time>2017-07-27T18:42:47Z</time>
      </trkpt>
      <trkpt lat="43.68732" lon="4.61487">
        <ele>6</ele>
        <time>2017-07-27T18:42:36Z</time>
      </trkpt>
      <trkpt lat="43.68732" lon="4.61487">
        <ele>6</ele>
        <time>2017-07-27T18:42:25Z</time>
      </trkpt>
      <trkpt lat="43.68732" lon="4.61487">
        <ele>6</ele>
        <time>2017-07-27T18:42:11Z</time>
      </trkpt>
      <trkpt lat="43.68732" lon="4.61487">
        <ele>6</ele>
        <time>2017-07-27T18:41:53Z</time>
      </trkpt>
      <trkpt lat="43.68732" lon="4.61487">
        <ele>6</ele>
        <time>2017-07-27T18:41:36Z</time>
      </trkpt>
      <trkpt lat="43.68733" lon="4.61486">
        <ele>6</ele>
        <time>2017-07-27T18:41:27Z</time>
      </trkpt>
      <trkpt lat="43.68733" lon="4.61486">
        <ele>6</ele>
        <time>2017-07-27T18:41:13Z</time>
      </trkpt>
      <trkpt lat="43.68733" lon="4.61486">
        <ele>6</ele>
        <time>2017-07-27T18:41:02Z</time>
      </trkpt>
      <trkpt lat="43.68733" lon="4.61486">
        <ele>6</ele>
        <time>2017-07-27T18:40:51Z</time>
      </trkpt>
      <trkpt lat="43.68733" lon="4.61486">
        <ele>6</ele>
        <time>2017-07-27T18:40:38Z</time>
      </trkpt>
      <trkpt lat="43.68733" lon="4.61486">
        <ele>6</ele>
        <time>2017-07-27T18:40:27Z</time>
      </trkpt>
      <trkpt lat="43.68733" lon="4.61486">
        <ele>6</ele>
        <time>2017-07-27T18:40:14Z</time>
      </trkpt>
      <trkpt lat="43.68733" lon="4.61486">
        <ele>6</ele>
        <time>2017-07-27T18:40:03Z</time>
      </trkpt>
      <trkpt lat="43.68733" lon="4.61486">
        <ele>6</ele>
        <time>2017-07-27T18:39:51Z</time>
      </trkpt>
      <trkpt lat="43.68733" lon="4.61485">
        <ele>6</ele>
        <time>2017-07-27T18:39:39Z</time>
      </trkpt>
      <trkpt lat="43.68733" lon="4.61485">
        <ele>6</ele>
        <time>2017-07-27T18:39:25Z</time>
      </trkpt>
      <trkpt lat="43.68733" lon="4.61485">
        <ele>6</ele>
        <time>2017-07-27T18:39:19Z</time>
      </trkpt>
      <trkpt lat="43.68733" lon="4.61485">
        <ele>6</ele>
        <time>2017-07-27T18:39:10Z</time>
      </trkpt>
      <trkpt lat="43.68741" lon="4.61478">
        <ele>6</ele>
        <time>2017-07-27T18:39:05Z</time>
      </trkpt>
      <trkpt lat="43.68753" lon="4.61468">
        <ele>7</ele>
        <time>2017-07-27T18:39:01Z</time>
      </trkpt>
      <trkpt lat="43.68759" lon="4.61463">
        <ele>7</ele>
        <time>2017-07-27T18:38:59Z</time>
      </trkpt>
      <trkpt lat="43.6877" lon="4.61457">
        <ele>7</ele>
        <time>2017-07-27T18:38:55Z</time>
      </trkpt>
      <trkpt lat="43.68762" lon="4.61435">
        <ele>7</ele>
        <time>2017-07-27T18:38:49Z</time>
      </trkpt>
      <trkpt lat="43.68759" lon="4.61429">
        <ele>7</ele>
        <time>2017-07-27T18:38:47Z</time>
      </trkpt>
      <trkpt lat="43.68758" lon="4.61426">
        <ele>7</ele>
        <time>2017-07-27T18:38:46Z</time>
      </trkpt>
      <trkpt lat="43.68757" lon="4.61424">
        <ele>7</ele>
        <time>2017-07-27T18:38:45Z</time>
      </trkpt>
      <trkpt lat="43.68756" lon="4.61423">
        <ele>7</ele>
        <time>2017-07-27T18:38:44Z</time>
      </trkpt>
      <trkpt lat="43.68756" lon="4.61421">
        <ele>7</ele>
        <time>2017-07-27T18:38:43Z</time>
      </trkpt>
      <trkpt lat="43.68756" lon="4.61421">
        <ele>7</ele>
        <time>2017-07-27T18:38:42Z</time>
      </trkpt>
      <trkpt lat="43.68756" lon="4.61421">
        <ele>7</ele>
        <time>2017-07-27T18:38:41Z</time>
      </trkpt>
      <trkpt lat="43.68756" lon="4.61421">
        <ele>7</ele>
        <time>2017-07-27T18:38:40Z</time>
      </trkpt>
      <trkpt lat="43.68756" lon="4.61421">
        <ele>7</ele>
        <time>2017-07-27T18:38:39Z</time>
      </trkpt>
      <trkpt lat="43.68756" lon="4.61421">
        <ele>7</ele>
        <time>2017-07-27T18:38:38Z</time>
      </trkpt>
      <trkpt lat="43.68756" lon="4.61421">
        <ele>7</ele>
        <time>2017-07-27T18:38:37Z</time>
      </trkpt>
      <trkpt lat="43.68756" lon="4.61421">
        <ele>7</ele>
        <time>2017-07-27T18:38:36Z</time>
      </trkpt>
      <trkpt lat="43.68755" lon="4.61421">
        <ele>7</ele>
        <time>2017-07-27T18:38:30Z</time>
      </trkpt>
      <trkpt lat="43.68751" lon="4.61421">
        <ele>7</ele>
        <time>2017-07-27T18:38:28Z</time>
      </trkpt>
      <trkpt lat="43.68749" lon="4.61424">
        <ele>7</ele>
        <time>2017-07-27T18:38:27Z</time>
      </trkpt>
      <trkpt lat="43.68744" lon="4.61436">
        <ele>6</ele>
      </trkpt>
      <trkpt lat="43.6874" lon="4.61443">
        <ele>6</ele>
        <time>2017-07-27T18:38:21Z</time>
      </trkpt>
      <trkpt lat="43.68735" lon="4.6145">
        <ele>6</ele>
      </trkpt>
      <trkpt lat="43.68725" lon="4.61455">
        <ele>6</ele>
        <time>2017-07-27T18:38:16Z</time>
      </trkpt>
      <trkpt lat="43.68722" lon="4.61456">
        <ele>6</ele>
        <time>2017-07-27T18:38:15Z</time>
      </trkpt>
      <trkpt lat="43.68715" lon="4.61454">
        <ele>6</ele>
        <time>2017-07-27T18:38:12Z</time>
      </trkpt>
      <trkpt lat="43.68714" lon="4.61452">
        <ele>6</ele>
        <time>2017-07-27T18:38:09Z</time>
      </trkpt>
      <trkpt lat="43.68702" lon="4.61463">
        <ele>6</ele>
      </trkpt>
      <trkpt lat="43.68692" lon="4.61467">
        <ele>6</ele>
        <time>2017-07-27T18:38:01Z</time>
      </trkpt>
      <trkpt lat="43.68682" lon="4.61468">
        <ele>6</ele>
        <time>2017-07-27T18:37:56Z</time>
      </trkpt>
      <trkpt lat="43.6868" lon="4.61468">
        <ele>6</ele>
        <time>2017-07-27T18:37:47Z</time>
      </trkpt>
      <trkpt lat="43.6868" lon="4.61468">
        <ele>6</ele>
        <time>2017-07-27T18:37:46Z</time>
      </trkpt>
      <trkpt lat="43.6868" lon="4.61468">
        <ele>6</ele>
        <time>2017-07-27T18:37:45Z</time>
      </trkpt>
      <trkpt lat="43.6868" lon="4.61468">
        <ele>6</ele>
        <time>2017-07-27T18:37:44Z</time>
      </trkpt>
      <trkpt lat="43.6868" lon="4.61468">
        <ele>6</ele>
        <time>2017-07-27T18:37:43Z</time>
      </trkpt>
      <trkpt lat="43.68678" lon="4.61468">
        <ele>5</ele>
        <time>2017-07-27T18:37:38Z</time>
      </trkpt>
      <trkpt lat="43.68673" lon="4.61467">
        <ele>5</ele>
        <time>2017-07-27T18:37:35Z</time>
      </trkpt>
      <trkpt lat="43.68629" lon="4.61479">
        <ele>5</ele>
      </trkpt>
      <trkpt lat="43.68581" lon="4.61491">
        <ele>5</ele>
      </trkpt>
      <trkpt lat="43.68551" lon="4.61493">
        <ele>5</ele>
        <time>2017-07-27T18:36:05Z</time>
      </trkpt>
      <trkpt lat="43.68544" lon="4.61496">
        <ele>5</ele>
        <time>2017-07-27T18:36:03Z</time>
      </trkpt>
      <trkpt lat="43.68522" lon="4.61499">
        <ele>5</ele>
        <time>2017-07-27T18:35:58Z</time>
      </trkpt>
      <trkpt lat="43.68502" lon="4.61501">
        <ele>5</ele>
        <time>2017-07-27T18:35:53Z</time>
      </trkpt>
      <trkpt lat="43.68463" lon="4.61504">
        <ele>5</ele>
        <time>2017-07-27T18:35:44Z</time>
      </trkpt>
      <trkpt lat="43.68435" lon="4.61507">
        <ele>6</ele>
        <time>2017-07-27T18:35:37Z</time>
      </trkpt>
      <trkpt lat="43.68412" lon="4.6151">
        <ele>6</ele>
        <time>2017-07-27T18:35:31Z</time>
      </trkpt>
      <trkpt lat="43.68396" lon="4.61513">
        <ele>6</ele>
        <time>2017-07-27T18:35:26Z</time>
      </trkpt>
      <trkpt lat="43.68388" lon="4.6152">
        <ele>6</ele>
        <time>2017-07-27T18:35:22Z</time>
      </trkpt>
      <trkpt lat="43.68381" lon="4.61529">
        <ele>6</ele>
      </trkpt>
      <trkpt lat="43.68383" lon="4.61542">
        <ele>5</ele>
      </trkpt>
      <trkpt lat="43.68373" lon="4.61544">
        <ele>6</ele>
        <time>2017-07-27T18:35:17Z</time>
      </trkpt>
      <trkpt lat="43.6837" lon="4.61545">
        <ele>6</ele>
        <time>2017-07-27T18:35:15Z</time>
      </trkpt>
      <trkpt lat="43.68367" lon="4.61544">
        <ele>6</ele>
        <time>2017-07-27T18:35:13Z</time>
      </trkpt>
      <trkpt lat="43.68351" lon="4.61544">
        <ele>6</ele>
        <time>2017-07-27T18:28:56Z</time>
      </trkpt>
      <trkpt lat="43.68348" lon="4.6154">
        <ele>5</ele>
      </trkpt>
      <trkpt lat="43.68343" lon="4.6154">
        <ele>5</ele>
        <time>2017-07-27T18:28:52Z</time>
      </trkpt>
      <trkpt lat="43.68322" lon="4.61543">
        <ele>5</ele>
        <time>2017-07-27T18:28:45Z</time>
      </trkpt>
      <trkpt lat="43.68301" lon="4.61545">
        <ele>5</ele>
        <time>2017-07-27T18:28:39Z</time>
      </trkpt>
      <trkpt lat="43.68278" lon="4.61548">
        <ele>5</ele>
        <time>2017-07-27T18:28:33Z</time>
      </trkpt>
      <trkpt lat="43.68256" lon="4.61549">
        <ele>5</ele>
        <time>2017-07-27T18:28:27Z</time>
      </trkpt>
      <trkpt lat="43.68234" lon="4.61549">
        <ele>6</ele>
        <time>2017-07-27T18:28:21Z</time>
      </trkpt>
      <trkpt lat="43.68223" lon="4.61549">
        <ele>6</ele>
        <time>2017-07-27T18:28:18Z</time>
      </trkpt>
      <trkpt lat="43.68204" lon="4.61548">
        <ele>7</ele>
        <time>2017-07-27T18:28:13Z</time>
      </trkpt>
      <trkpt lat="43.6819" lon="4.61548">
        <ele>7</ele>
        <time>2017-07-27T18:28:07Z</time>
      </trkpt>
      <trkpt lat="43.68187" lon="4.61571">
        <ele>7</ele>
        <time>2017-07-27T18:27:51Z</time>
      </trkpt>
      <trkpt lat="43.68042" lon="4.6154">
        <ele>7</ele>
      </trkpt>
      <trkpt lat="43.68039" lon="4.61547">
        <ele>7</ele>
      </trkpt>
      <trkpt lat="43.68039" lon="4.61554">
        <ele>7</ele>
      </trkpt>
      <trkpt lat="43.68038" lon="4.61588">
        <ele>6</ele>
      </trkpt>
      <trkpt lat="43.68038" lon="4.61613">
        <ele>6</ele>
      </trkpt>
      <trkpt lat="43.6804" lon="4.6166">
        <ele>6</ele>
      </trkpt>
      <trkpt lat="43.68038" lon="4.61675">
        <ele>6</ele>
      </trkpt>
      <trkpt lat="43.68031" lon="4.61701">
        <ele>6</ele>
      </trkpt>
      <trkpt lat="43.68029" lon="4.61714">
        <ele>6</ele>
      </trkpt>
      <trkpt lat="43.68025" lon="4.6173">
        <ele>6</ele>
      </trkpt>
      <trkpt lat="43.67994" lon="4.61849">
        <ele>9</ele>
      </trkpt>
      <trkpt lat="43.67957" lon="4.61827">
        <ele>8</ele>
      </trkpt>
      <trkpt lat="43.67956" lon="4.61811">
        <ele>8</ele>
        <time>2017-07-27T18:22:55Z</time>
      </trkpt>
      <trkpt lat="43.6795" lon="4.61794">
        <ele>8</ele>
      </trkpt>
      <trkpt lat="43.67939" lon="4.61774">
        <ele>8</ele>
      </trkpt>
      <trkpt lat="43.67921" lon="4.61756">
        <ele>8</ele>
      </trkpt>
      <trkpt lat="43.6787" lon="4.61748">
        <ele>8</ele>
      </trkpt>
      <trkpt lat="43.6787" lon="4.61729">
        <ele>8</ele>
      </trkpt>
      <trkpt lat="43.67859" lon="4.61694">
        <ele>8</ele>
      </trkpt>
      <trkpt lat="43.67858" lon="4.61684">
        <ele>8</ele>
      </trkpt>
      <trkpt lat="43.67855" lon="4.61676">
        <ele>8</ele>
        <time>2017-07-27T18:19:03Z</time>
      </trkpt>
      <trkpt lat="43.67847" lon="4.61649">
        <ele>8</ele>
        <time>2017-07-27T18:18:57Z</time>
      </trkpt>
      <trkpt lat="43.67842" lon="4.61632">
        <ele>8</ele>
      </trkpt>
      <trkpt lat="43.67815" lon="4.61489">
        <ele>8</ele>
        <time>2017-07-27T18:18:26Z</time>
      </trkpt>
      <trkpt lat="43.67811" lon="4.61472">
        <ele>8</ele>
        <time>2017-07-27T18:18:21Z</time>
      </trkpt>
      <trkpt lat="43.6781" lon="4.6147">
        <ele>8</ele>
        <time>2017-07-27T18:18:08Z</time>
      </trkpt>
      <trkpt lat="43.6781" lon="4.6147">
        <ele>8</ele>
        <time>2017-07-27T18:18:06Z</time>
      </trkpt>
      <trkpt lat="43.6781" lon="4.61471">
        <ele>8</ele>
        <time>2017-07-27T18:18:05Z</time>
      </trkpt>
      <trkpt lat="43.6781" lon="4.6147">
        <ele>8</ele>
        <time>2017-07-27T18:18:04Z</time>
      </trkpt>
      <trkpt lat="43.67809" lon="4.61468">
        <ele>8</ele>
        <time>2017-07-27T18:18:03Z</time>
      </trkpt>
      <trkpt lat="43.67808" lon="4.61466">
        <ele>8</ele>
        <time>2017-07-27T18:18:02Z</time>
      </trkpt>
      <trkpt lat="43.67806" lon="4.61465">
        <ele>8</ele>
        <time>2017-07-27T18:18:01Z</time>
      </trkpt>
      <trkpt lat="43.67803" lon="4.61466">
        <ele>8</ele>
        <time>2017-07-27T18:18:00Z</time>
      </trkpt>
      <trkpt lat="43.678" lon="4.61469">
        <ele>8</ele>
        <time>2017-07-27T18:17:59Z</time>
      </trkpt>
      <trkpt lat="43.67797" lon="4.61474">
        <ele>8</ele>
        <time>2017-07-27T18:17:58Z</time>
      </trkpt>
      <trkpt lat="43.67781" lon="4.61508">
        <ele>8</ele>
        <time>2017-07-27T18:17:53Z</time>
      </trkpt>
      <trkpt lat="43.67765" lon="4.61543">
        <ele>8</ele>
        <time>2017-07-27T18:17:47Z</time>
      </trkpt>
      <trkpt lat="43.67753" lon="4.6156">
        <ele>7</ele>
        <time>2017-07-27T18:17:43Z</time>
      </trkpt>
      <trkpt lat="43.67743" lon="4.61554">
        <ele>7</ele>
        <time>2017-07-27T18:17:42Z</time>
      </trkpt>
      <trkpt lat="43.67733" lon="4.61564">
        <ele>7</ele>
        <time>2017-07-27T18:17:38Z</time>
      </trkpt>
      <trkpt lat="43.67715" lon="4.61598">
        <ele>7</ele>
        <time>2017-07-27T18:17:30Z</time>
      </trkpt>
      <trkpt lat="43.67694" lon="4.61635">
        <ele>7</ele>
        <time>2017-07-27T18:17:22Z</time>
      </trkpt>
      <trkpt lat="43.67672" lon="4.61671">
        <ele>7</ele>
        <time>2017-07-27T18:17:13Z</time>
      </trkpt>
      <trkpt lat="43.67651" lon="4.61704">
        <ele>6</ele>
        <time>2017-07-27T18:17:05Z</time>
      </trkpt>
      <trkpt lat="43.67628" lon="4.61737">
        <ele>5</ele>
        <time>2017-07-27T18:16:56Z</time>
      </trkpt>
      <trkpt lat="43.67603" lon="4.61775">
        <ele>4</ele>
        <time>2017-07-27T18:16:49Z</time>
      </trkpt>
      <trkpt lat="43.67582" lon="4.61806">
        <ele>4</ele>
        <time>2017-07-27T18:16:42Z</time>
      </trkpt>
      <trkpt lat="43.67558" lon="4.61839">
        <ele>6</ele>
        <time>2017-07-27T18:16:34Z</time>
      </trkpt>
      <trkpt lat="43.67552" lon="4.61847">
        <ele>6</ele>
        <time>2017-07-27T18:16:32Z</time>
      </trkpt>
      <trkpt lat="43.6755" lon="4.61852">
        <ele>7</ele>
        <time>2017-07-27T18:16:31Z</time>
      </trkpt>
      <trkpt lat="43.67547" lon="4.61856">
        <ele>7</ele>
        <time>2017-07-27T18:16:30Z</time>
      </trkpt>
      <trkpt lat="43.67544" lon="4.6186">
        <ele>7</ele>
        <time>2017-07-27T18:16:29Z</time>
      </trkpt>
      <trkpt lat="43.67541" lon="4.61863">
        <ele>7</ele>
        <time>2017-07-27T18:16:28Z</time>
      </trkpt>
      <trkpt lat="43.67535" lon="4.6187">
        <ele>8</ele>
        <time>2017-07-27T18:16:26Z</time>
      </trkpt>
      <trkpt lat="43.67533" lon="4.61874">
        <ele>8</ele>
        <time>2017-07-27T18:16:25Z</time>
      </trkpt>
      <trkpt lat="43.6753" lon="4.61878">
        <ele>8</ele>
        <time>2017-07-27T18:16:24Z</time>
      </trkpt>
      <trkpt lat="43.67505" lon="4.61913">
        <ele>10</ele>
        <time>2017-07-27T18:16:15Z</time>
      </trkpt>
      <trkpt lat="43.67498" lon="4.61929">
        <ele>10</ele>
        <time>2017-07-27T18:16:10Z</time>
      </trkpt>
      <trkpt lat="43.67497" lon="4.61932">
        <ele>10</ele>
        <time>2017-07-27T18:16:09Z</time>
      </trkpt>
      <trkpt lat="43.67497" lon="4.61935">
        <ele>10</ele>
        <time>2017-07-27T18:16:08Z</time>
      </trkpt>
      <trkpt lat="43.67496" lon="4.61938">
        <ele>10</ele>
        <time>2017-07-27T18:16:07Z</time>
      </trkpt>
      <trkpt lat="43.67494" lon="4.61941">
        <ele>10</ele>
        <time>2017-07-27T18:16:06Z</time>
      </trkpt>
      <trkpt lat="43.67492" lon="4.61944">
        <ele>10</ele>
        <time>2017-07-27T18:16:05Z</time>
      </trkpt>
      <trkpt lat="43.67471" lon="4.61971">
        <ele>9</ele>
        <time>2017-07-27T18:15:58Z</time>
      </trkpt>
      <trkpt lat="43.67465" lon="4.61981">
        <ele>9</ele>
        <time>2017-07-27T18:15:56Z</time>
      </trkpt>
      <trkpt lat="43.67462" lon="4.61985">
        <ele>9</ele>
        <time>2017-07-27T18:15:55Z</time>
      </trkpt>
      <trkpt lat="43.67459" lon="4.61989">
        <ele>9</ele>
        <time>2017-07-27T18:15:54Z</time>
      </trkpt>
      <trkpt lat="43.67456" lon="4.61993">
        <ele>9</ele>
        <time>2017-07-27T18:15:53Z</time>
      </trkpt>
      <trkpt lat="43.67453" lon="4.61997">
        <ele>9</ele>
        <time>2017-07-27T18:15:52Z</time>
      </trkpt>
      <trkpt lat="43.6745" lon="4.62001">
        <ele>9</ele>
        <time>2017-07-27T18:15:51Z</time>
      </trkpt>
      <trkpt lat="43.67423" lon="4.62037">
        <ele>8</ele>
        <time>2017-07-27T18:15:43Z</time>
      </trkpt>
      <trkpt lat="43.67412" lon="4.62055">
        <ele>7</ele>
        <time>2017-07-27T18:15:39Z</time>
      </trkpt>
      <trkpt lat="43.6741" lon="4.62056">
        <ele>7</ele>
        <time>2017-07-27T17:05:08Z</time>
      </trkpt>
      <trkpt lat="43.67402" lon="4.62087">
        <ele>8</ele>
        <time>2017-07-27T17:05:02Z</time>
      </trkpt>
      <trkpt lat="43.674" lon="4.62112">
        <ele>8</ele>
        <time>2017-07-27T17:04:57Z</time>
      </trkpt>
      <trkpt lat="43.67399" lon="4.62128">
        <ele>8</ele>
        <time>2017-07-27T17:04:53Z</time>
      </trkpt>
      <trkpt lat="43.67398" lon="4.62131">
        <ele>8</ele>
        <time>2017-07-27T17:04:49Z</time>
      </trkpt>
    </trkseg>
  </trk>
</gpx>